Time,TemperatureF,DewpointF,PressureIn,WindDirection,WindDirectionDegrees,WindSpeedMPH,WindSpeedGustMPH,Humidity,HourlyPrecipIn,Conditions,Clouds,dailyrainin,SoftwareType,DateUTC
2013-06-04 00:00:00,67.1,64.4,29.86,North,0,0.0,0.0,91,0.00,,,0.00,WUHU216HW,2013-06-04 04:00:00,
2013-06-04 00:01:00,67.1,64.4,29.86,North,0,0.0,0.0,91,0.00,,,0.00,WUHU216HW,2013-06-04 04:01:00,
2013-06-04 00:06:00,67.1,64.4,29.86,North,0,0.0,0.0,91,0.00,,,0.00,WUHU216HW,2013-06-04 04:06:00,
2013-06-04 00:11:00,67.1,64.4,29.86,North,0,0.0,0.0,91,0.00,,,0.00,WUHU216HW,2013-06-04 04:11:00,
2013-06-04 00:12:00,67.1,64.4,29.86,North,0,0.0,0.0,91,0.00,,,0.00,WUHU216HW,2013-06-04 04:12:00,
2013-06-04 00:16:00,67.3,64.5,29.86,North,0,0.0,0.0,91,0.00,,,0.00,WUHU216HW,2013-06-04 04:16:00,
2013-06-04 00:17:00,67.3,64.5,29.86,North,0,0.0,0.0,91,0.00,,,0.00,WUHU216HW,2013-06-04 04:17:00,
2013-06-04 00:22:00,67.3,64.5,29.86,North,0,0.0,0.0,91,0.00,,,0.00,WUHU216HW,2013-06-04 04:22:00,
2013-06-04 00:27:00,67.3,64.5,29.86,North,0,0.0,0.0,91,0.00,,,0.00,WUHU216HW,2013-06-04 04:27:00,
2013-06-04 00:32:00,67.3,64.5,29.86,North,0,0.0,0.0,91,0.00,,,0.00,WUHU216HW,2013-06-04 04:32:00,
2013-06-04 00:33:00,67.3,64.5,29.86,North,0,0.0,0.0,91,0.00,,,0.00,WUHU216HW,2013-06-04 04:33:00,
2013-06-04 00:37:00,67.3,64.5,29.86,North,0,0.0,0.0,91,0.00,,,0.00,WUHU216HW,2013-06-04 04:37:00,
2013-06-04 00:38:00,67.3,64.5,29.86,North,0,0.0,0.0,91,0.00,,,0.00,WUHU216HW,2013-06-04 04:38:00,
2013-06-04 00:42:00,67.3,64.5,29.86,North,0,0.0,0.0,91,0.00,,,0.00,WUHU216HW,2013-06-04 04:42:00,
2013-06-04 00:43:00,67.3,64.5,29.87,North,0,0.0,0.0,91,0.00,,,0.00,WUHU216HW,2013-06-04 04:43:00,
2013-06-04 00:47:00,67.5,64.7,29.87,North,0,0.0,0.0,91,0.00,,,0.00,WUHU216HW,2013-06-04 04:47:00,
2013-06-04 00:48:00,67.5,64.7,29.87,North,0,0.0,0.0,91,0.00,,,0.00,WUHU216HW,2013-06-04 04:48:00,
2013-06-04 00:52:00,67.7,65.3,29.87,North,0,0.0,0.0,92,0.00,,,0.00,WUHU216HW,2013-06-04 04:52:00,
2013-06-04 00:53:00,67.7,65.3,29.87,North,0,0.0,0.0,92,0.00,,,0.00,WUHU216HW,2013-06-04 04:53:00,
2013-06-04 00:58:00,67.7,65.3,29.87,North,0,0.0,0.0,92,0.00,,,0.00,WUHU216HW,2013-06-04 04:58:00,
2013-06-04 00:59:00,67.7,65.3,29.87,North,0,0.0,0.0,92,0.00,,,0.00,WUHU216HW,2013-06-04 04:59:00,
2013-06-04 01:03:00,67.7,65.3,29.87,North,0,0.0,0.0,92,0.00,,,0.00,WUHU216HW,2013-06-04 05:03:00,
2013-06-04 01:04:00,67.7,65.3,29.87,North,0,0.0,0.0,92,0.00,,,0.00,WUHU216HW,2013-06-04 05:04:00,
2013-06-04 01:08:00,67.7,65.3,29.87,North,0,0.0,0.0,92,0.00,,,0.00,WUHU216HW,2013-06-04 05:08:00,
2013-06-04 01:09:00,67.5,65.1,29.87,North,0,0.0,0.0,92,0.00,,,0.00,WUHU216HW,2013-06-04 05:09:00,
2013-06-04 01:13:00,67.3,64.9,29.87,North,0,0.0,0.0,92,0.00,,,0.00,WUHU216HW,2013-06-04 05:13:00,
2013-06-04 01:14:00,67.3,64.9,29.86,North,0,0.0,0.0,92,0.00,,,0.00,WUHU216HW,2013-06-04 05:14:00,
2013-06-04 01:15:00,67.3,64.9,29.87,North,0,0.0,0.0,92,0.00,,,0.00,WUHU216HW,2013-06-04 05:15:00,
2013-06-04 01:18:00,67.3,64.9,29.87,North,0,0.0,0.0,92,0.00,,,0.00,WUHU216HW,2013-06-04 05:18:00,
2013-06-04 01:19:00,67.3,64.9,29.87,North,0,0.0,0.0,92,0.00,,,0.00,WUHU216HW,2013-06-04 05:19:00,
2013-06-04 01:20:00,67.1,64.7,29.87,North,0,0.0,0.0,92,0.00,,,0.00,WUHU216HW,2013-06-04 05:20:00,
2013-06-04 01:24:00,67.1,64.7,29.88,North,0,0.0,0.0,92,0.00,,,0.00,WUHU216HW,2013-06-04 05:24:00,
2013-06-04 01:25:00,67.0,64.5,29.88,North,0,0.0,0.0,92,0.00,,,0.00,WUHU216HW,2013-06-04 05:25:00,
2013-06-04 01:29:00,67.0,64.5,29.88,North,0,0.0,0.0,92,0.00,,,0.00,WUHU216HW,2013-06-04 05:29:00,
2013-06-04 01:30:00,67.0,64.5,29.88,North,0,0.0,0.0,92,0.00,,,0.00,WUHU216HW,2013-06-04 05:30:00,
2013-06-04 01:34:00,67.0,64.5,29.88,North,0,0.0,0.0,92,0.00,,,0.00,WUHU216HW,2013-06-04 05:34:00,
2013-06-04 01:35:00,67.0,64.5,29.88,North,0,0.0,0.0,92,0.00,,,0.00,WUHU216HW,2013-06-04 05:35:00,
2013-06-04 01:39:00,67.0,64.5,29.88,North,0,0.0,0.0,92,0.00,,,0.00,WUHU216HW,2013-06-04 05:39:00,
2013-06-04 01:40:00,67.0,64.5,29.88,North,0,0.0,0.0,92,0.00,,,0.00,WUHU216HW,2013-06-04 05:40:00,
2013-06-04 01:41:00,67.0,64.5,29.88,North,0,0.0,0.0,92,0.00,,,0.00,WUHU216HW,2013-06-04 05:41:00,
2013-06-04 01:45:00,67.0,64.5,29.88,North,0,0.0,0.0,92,0.00,,,0.00,WUHU216HW,2013-06-04 05:45:00,
2013-06-04 01:46:00,67.0,64.5,29.88,North,0,0.0,0.0,92,0.00,,,0.00,WUHU216HW,2013-06-04 05:46:00,
2013-06-04 01:50:00,67.0,64.5,29.89,North,0,0.0,0.0,92,0.00,,,0.00,WUHU216HW,2013-06-04 05:50:00,
2013-06-04 01:51:00,67.0,64.5,29.88,North,0,0.0,0.0,92,0.00,,,0.00,WUHU216HW,2013-06-04 05:51:00,
2013-06-04 01:55:00,67.0,64.5,29.89,North,0,0.0,0.0,92,0.00,,,0.00,WUHU216HW,2013-06-04 05:55:00,
2013-06-04 01:57:00,67.0,64.5,29.89,North,0,0.0,0.0,92,0.00,,,0.00,WUHU216HW,2013-06-04 05:57:00,
2013-06-04 02:00:00,67.0,64.5,29.89,North,0,0.0,0.0,92,0.00,,,0.00,WUHU216HW,2013-06-04 06:00:00,
2013-06-04 02:01:00,67.0,64.5,29.89,North,0,0.0,0.0,92,0.00,,,0.00,WUHU216HW,2013-06-04 06:01:00,
2013-06-04 02:02:00,66.8,64.4,29.89,North,0,0.0,0.0,92,0.00,,,0.00,WUHU216HW,2013-06-04 06:02:00,
2013-06-04 02:05:00,66.8,64.4,29.89,North,0,0.0,0.0,92,0.00,,,0.00,WUHU216HW,2013-06-04 06:05:00,
2013-06-04 02:06:00,66.8,64.4,29.89,North,0,0.0,0.0,92,0.00,,,0.00,WUHU216HW,2013-06-04 06:06:00,
2013-06-04 02:07:00,67.0,64.2,29.89,North,0,0.0,0.0,91,0.00,,,0.00,WUHU216HW,2013-06-04 06:07:00,
2013-06-04 02:11:00,66.8,64.0,29.89,North,0,0.0,0.0,91,0.00,,,0.00,WUHU216HW,2013-06-04 06:11:00,
2013-06-04 02:12:00,66.8,64.0,29.89,North,0,0.0,0.0,91,0.00,,,0.00,WUHU216HW,2013-06-04 06:12:00,
2013-06-04 02:16:00,66.8,63.7,29.89,North,0,0.0,0.0,90,0.00,,,0.00,WUHU216HW,2013-06-04 06:16:00,
2013-06-04 02:17:00,67.0,63.9,29.90,North,0,0.0,0.0,90,0.00,,,0.00,WUHU216HW,2013-06-04 06:17:00,
2013-06-04 02:21:00,66.6,62.3,29.90,North,0,0.0,0.0,86,0.00,,,0.00,WUHU216HW,2013-06-04 06:21:00,
2013-06-04 02:22:00,66.6,62.6,29.90,North,0,0.0,0.0,87,0.00,,,0.00,WUHU216HW,2013-06-04 06:22:00,
2013-06-04 02:26:00,66.6,61.6,29.89,North,0,0.0,0.0,84,0.00,,,0.00,WUHU216HW,2013-06-04 06:26:00,
2013-06-04 02:27:00,66.6,61.6,29.89,North,0,0.0,0.0,84,0.00,,,0.00,WUHU216HW,2013-06-04 06:27:00,
2013-06-04 02:32:00,66.6,60.0,29.90,North,0,0.0,0.0,79,0.00,,,0.00,WUHU216HW,2013-06-04 06:32:00,
2013-06-04 02:33:00,66.6,60.0,29.90,North,0,0.0,0.0,79,0.00,,,0.00,WUHU216HW,2013-06-04 06:33:00,
2013-06-04 02:37:00,66.6,58.8,29.89,North,0,0.0,0.0,76,0.00,,,0.00,WUHU216HW,2013-06-04 06:37:00,
2013-06-04 02:38:00,66.6,59.1,29.89,North,0,0.0,0.0,77,0.00,,,0.00,WUHU216HW,2013-06-04 06:38:00,
2013-06-04 02:42:00,66.4,57.9,29.89,North,0,0.0,0.0,74,0.00,,,0.00,WUHU216HW,2013-06-04 06:42:00,
2013-06-04 02:43:00,66.2,57.3,29.89,North,0,0.0,0.0,73,0.00,,,0.00,WUHU216HW,2013-06-04 06:43:00,
2013-06-04 02:47:00,66.1,56.8,29.89,North,0,0.0,0.0,72,0.00,,,0.00,WUHU216HW,2013-06-04 06:47:00,
2013-06-04 02:48:00,66.2,56.9,29.89,North,0,0.0,0.0,72,0.00,,,0.00,WUHU216HW,2013-06-04 06:48:00,
2013-06-04 02:53:00,65.9,57.0,29.89,North,0,0.0,0.0,73,0.00,,,0.00,WUHU216HW,2013-06-04 06:53:00,
2013-06-04 02:58:00,65.7,56.8,29.89,North,0,0.0,0.0,73,0.00,,,0.00,WUHU216HW,2013-06-04 06:58:00,
2013-06-04 03:03:00,65.5,57.3,29.90,North,0,0.0,0.0,75,0.00,,,0.00,WUHU216HW,2013-06-04 07:03:00,
2013-06-04 03:04:00,65.5,57.3,29.90,North,0,0.0,0.0,75,0.00,,,0.00,WUHU216HW,2013-06-04 07:04:00,
2013-06-04 03:05:00,65.3,56.8,29.90,North,0,0.0,0.0,74,0.00,,,0.00,WUHU216HW,2013-06-04 07:05:00,
2013-06-04 03:08:00,65.2,56.7,29.90,North,0,0.0,0.0,74,0.00,,,0.00,WUHU216HW,2013-06-04 07:08:00,
2013-06-04 03:09:00,65.2,56.7,29.90,North,0,0.0,0.0,74,0.00,,,0.00,WUHU216HW,2013-06-04 07:09:00,
2013-06-04 03:10:00,65.2,56.3,29.90,North,0,0.0,0.0,73,0.00,,,0.00,WUHU216HW,2013-06-04 07:10:00,
2013-06-04 03:14:00,64.8,56.0,29.90,North,0,0.0,0.0,73,0.00,,,0.00,WUHU216HW,2013-06-04 07:14:00,
2013-06-04 03:16:00,64.8,55.6,29.90,North,0,0.0,0.0,72,0.00,,,0.00,WUHU216HW,2013-06-04 07:16:00,
2013-06-04 03:19:00,64.6,55.5,29.91,North,0,0.0,0.0,72,0.00,,,0.00,WUHU216HW,2013-06-04 07:19:00,
2013-06-04 03:21:00,64.6,55.5,29.91,North,0,0.0,0.0,72,0.00,,,0.00,WUHU216HW,2013-06-04 07:21:00,
2013-06-04 03:24:00,64.4,54.9,29.91,North,0,0.0,0.0,71,0.00,,,0.00,WUHU216HW,2013-06-04 07:24:00,
2013-06-04 03:25:00,64.4,54.9,29.91,North,0,0.0,0.0,71,0.00,,,0.00,WUHU216HW,2013-06-04 07:25:00,
2013-06-04 03:26:00,64.4,54.9,29.90,North,0,0.0,0.0,71,0.00,,,0.00,WUHU216HW,2013-06-04 07:26:00,
2013-06-04 03:29:00,64.3,54.7,29.91,North,0,0.0,0.0,71,0.00,,,0.00,WUHU216HW,2013-06-04 07:29:00,
2013-06-04 03:30:00,64.3,54.4,29.91,North,0,0.0,0.0,70,0.00,,,0.00,WUHU216HW,2013-06-04 07:30:00,
2013-06-04 03:32:00,64.3,54.7,29.91,North,0,0.0,0.0,71,0.00,,,0.00,WUHU216HW,2013-06-04 07:32:00,
2013-06-04 03:34:00,64.1,54.9,29.91,North,0,0.0,0.0,72,0.00,,,0.00,WUHU216HW,2013-06-04 07:34:00,
2013-06-04 03:35:00,64.1,54.9,29.91,North,0,0.0,0.0,72,0.00,,,0.00,WUHU216HW,2013-06-04 07:35:00,
2013-06-04 03:36:00,64.1,54.9,29.91,North,0,0.0,0.0,72,0.00,,,0.00,WUHU216HW,2013-06-04 07:36:00,
2013-06-04 03:37:00,64.1,54.9,29.91,North,0,0.0,0.0,72,0.00,,,0.00,WUHU216HW,2013-06-04 07:37:00,
2013-06-04 03:39:00,63.9,54.7,29.91,North,0,0.0,0.0,72,0.00,,,0.00,WUHU216HW,2013-06-04 07:39:00,
2013-06-04 03:40:00,63.9,54.7,29.91,North,0,0.0,0.0,72,0.00,,,0.00,WUHU216HW,2013-06-04 07:40:00,
2013-06-04 03:42:00,63.7,54.5,29.91,North,0,0.0,0.0,72,0.00,,,0.00,WUHU216HW,2013-06-04 07:42:00,
2013-06-04 03:44:00,63.7,54.5,29.91,North,0,0.0,0.0,72,0.00,,,0.00,WUHU216HW,2013-06-04 07:44:00,
2013-06-04 03:45:00,63.7,54.5,29.91,North,0,0.0,0.0,72,0.00,,,0.00,WUHU216HW,2013-06-04 07:45:00,
2013-06-04 03:47:00,63.7,54.9,29.91,North,0,0.0,0.0,73,0.00,,,0.00,WUHU216HW,2013-06-04 07:47:00,
2013-06-04 03:49:00,63.5,54.7,29.91,North,0,0.0,0.0,73,0.00,,,0.00,WUHU216HW,2013-06-04 07:49:00,
2013-06-04 03:50:00,63.5,54.7,29.91,North,0,0.0,0.0,73,0.00,,,0.00,WUHU216HW,2013-06-04 07:50:00,
2013-06-04 03:51:00,63.4,54.5,29.91,North,0,0.0,0.0,73,0.00,,,0.00,WUHU216HW,2013-06-04 07:51:00,
2013-06-04 03:52:00,63.4,54.5,29.91,North,0,0.0,0.0,73,0.00,,,0.00,WUHU216HW,2013-06-04 07:52:00,
2013-06-04 03:53:00,63.4,54.2,29.91,North,0,0.0,0.0,72,0.00,,,0.00,WUHU216HW,2013-06-04 07:53:00,
2013-06-04 03:54:00,63.2,54.0,29.91,North,0,0.0,0.0,72,0.00,,,0.00,WUHU216HW,2013-06-04 07:54:00,
2013-06-04 03:55:00,63.2,54.0,29.91,North,0,0.0,0.0,72,0.00,,,0.00,WUHU216HW,2013-06-04 07:55:00,
2013-06-04 03:57:00,63.0,53.8,29.92,North,0,0.0,0.0,72,0.00,,,0.00,WUHU216HW,2013-06-04 07:57:00,
2013-06-04 03:58:00,63.0,53.5,29.91,North,0,0.0,0.0,71,0.00,,,0.00,WUHU216HW,2013-06-04 07:58:00,
2013-06-04 04:00:00,63.0,53.8,29.92,North,0,0.0,0.0,72,0.00,,,0.00,WUHU216HW,2013-06-04 08:00:00,
2013-06-04 04:02:00,62.8,53.6,29.92,North,0,0.0,0.0,72,0.00,,,0.00,WUHU216HW,2013-06-04 08:02:00,
2013-06-04 04:03:00,62.8,53.3,29.92,North,0,0.0,0.0,71,0.00,,,0.00,WUHU216HW,2013-06-04 08:03:00,
2013-06-04 04:05:00,62.6,53.1,29.92,North,0,0.0,0.0,71,0.00,,,0.00,WUHU216HW,2013-06-04 08:05:00,
2013-06-04 04:06:00,62.6,52.7,29.92,North,0,0.0,0.0,70,0.00,,,0.00,WUHU216HW,2013-06-04 08:06:00,
2013-06-04 04:07:00,62.6,52.7,29.92,North,0,0.0,0.0,70,0.00,,,0.00,WUHU216HW,2013-06-04 08:07:00,
2013-06-04 04:08:00,62.6,53.1,29.92,North,0,0.0,0.0,71,0.00,,,0.00,WUHU216HW,2013-06-04 08:08:00,
2013-06-04 04:10:00,62.6,53.5,29.92,North,0,0.0,0.0,72,0.00,,,0.00,WUHU216HW,2013-06-04 08:10:00,
2013-06-04 04:11:00,62.6,53.5,29.92,North,0,0.0,0.0,72,0.00,,,0.00,WUHU216HW,2013-06-04 08:11:00,
2013-06-04 04:13:00,62.5,52.9,29.92,North,0,0.0,0.0,71,0.00,,,0.00,WUHU216HW,2013-06-04 08:13:00,
2013-06-04 04:15:00,62.5,53.3,29.92,North,0,0.0,0.0,72,0.00,,,0.00,WUHU216HW,2013-06-04 08:15:00,
2013-06-04 04:16:00,62.3,53.1,29.92,North,0,0.0,0.0,72,0.00,,,0.00,WUHU216HW,2013-06-04 08:16:00,
2013-06-04 04:18:00,62.3,52.7,29.92,North,0,0.0,0.0,71,0.00,,,0.00,WUHU216HW,2013-06-04 08:18:00,
2013-06-04 04:19:00,62.3,53.1,29.92,North,0,0.0,0.0,72,0.00,,,0.00,WUHU216HW,2013-06-04 08:19:00,
2013-06-04 04:20:00,62.3,52.7,29.93,North,0,0.0,0.0,71,0.00,,,0.00,WUHU216HW,2013-06-04 08:20:00,
2013-06-04 04:21:00,62.1,52.7,29.92,North,0,0.0,0.0,71,0.00,,,0.00,WUHU216HW,2013-06-04 08:21:00,
2013-06-04 04:23:00,62.1,52.7,29.93,North,0,0.0,0.0,71,0.00,,,0.00,WUHU216HW,2013-06-04 08:23:00,
2013-06-04 04:24:00,61.9,52.5,29.93,North,0,0.0,0.0,71,0.00,,,0.00,WUHU216HW,2013-06-04 08:24:00,
2013-06-04 04:25:00,61.9,52.1,29.93,North,0,0.0,0.0,70,0.00,,,0.00,WUHU216HW,2013-06-04 08:25:00,
2013-06-04 04:26:00,61.9,51.7,29.93,North,0,0.0,0.0,69,0.00,,,0.00,WUHU216HW,2013-06-04 08:26:00,
2013-06-04 04:28:00,61.9,51.7,29.93,North,0,0.0,0.0,69,0.00,,,0.00,WUHU216HW,2013-06-04 08:28:00,
2013-06-04 04:29:00,61.9,51.7,29.93,North,0,0.0,0.0,69,0.00,,,0.00,WUHU216HW,2013-06-04 08:29:00,
2013-06-04 04:31:00,61.9,52.1,29.93,North,0,0.0,0.0,70,0.00,,,0.00,WUHU216HW,2013-06-04 08:31:00,
2013-06-04 04:33:00,61.7,51.5,29.93,North,0,0.0,0.0,69,0.00,,,0.00,WUHU216HW,2013-06-04 08:33:00,
2013-06-04 04:34:00,61.7,51.5,29.93,North,0,0.0,0.0,69,0.00,,,0.00,WUHU216HW,2013-06-04 08:34:00,
2013-06-04 04:36:00,61.6,51.4,29.93,North,0,0.0,0.0,69,0.00,,,0.00,WUHU216HW,2013-06-04 08:36:00,
2013-06-04 04:38:00,61.6,51.4,29.93,North,0,0.0,0.0,69,0.00,,,0.00,WUHU216HW,2013-06-04 08:38:00,
2013-06-04 04:39:00,61.6,51.4,29.93,North,0,0.0,0.0,69,0.00,,,0.00,WUHU216HW,2013-06-04 08:39:00,
2013-06-04 04:41:00,61.6,52.1,29.93,North,0,0.0,0.0,71,0.00,,,0.00,WUHU216HW,2013-06-04 08:41:00,
2013-06-04 04:42:00,61.6,52.1,29.93,North,0,0.0,0.0,71,0.00,,,0.00,WUHU216HW,2013-06-04 08:42:00,
2013-06-04 04:43:00,61.6,52.1,29.94,North,0,0.0,0.0,71,0.00,,,0.00,WUHU216HW,2013-06-04 08:43:00,
2013-06-04 04:44:00,61.4,51.9,29.94,North,0,0.0,0.0,71,0.00,,,0.00,WUHU216HW,2013-06-04 08:44:00,
2013-06-04 04:45:00,61.4,51.9,29.94,North,0,0.0,0.0,71,0.00,,,0.00,WUHU216HW,2013-06-04 08:45:00,
2013-06-04 04:47:00,61.2,51.5,29.94,North,0,0.0,0.0,70,0.00,,,0.00,WUHU216HW,2013-06-04 08:47:00,
2013-06-04 04:48:00,61.2,51.5,29.94,North,0,0.0,0.0,70,0.00,,,0.00,WUHU216HW,2013-06-04 08:48:00,
2013-06-04 04:50:00,61.2,51.9,29.94,North,0,0.0,0.0,71,0.00,,,0.00,WUHU216HW,2013-06-04 08:50:00,
2013-06-04 04:52:00,61.0,52.0,29.94,North,0,0.0,0.0,72,0.00,,,0.00,WUHU216HW,2013-06-04 08:52:00,
2013-06-04 04:53:00,61.0,52.4,29.94,North,0,0.0,0.0,73,0.00,,,0.00,WUHU216HW,2013-06-04 08:53:00,
2013-06-04 04:55:00,60.8,52.2,29.94,North,0,0.0,0.0,73,0.00,,,0.00,WUHU216HW,2013-06-04 08:55:00,
2013-06-04 04:57:00,60.8,52.6,29.94,North,0,0.0,0.0,74,0.00,,,0.00,WUHU216HW,2013-06-04 08:57:00,
2013-06-04 04:59:00,60.8,52.2,29.94,North,0,0.0,0.0,73,0.00,,,0.00,WUHU216HW,2013-06-04 08:59:00,
2013-06-04 05:00:00,60.8,52.2,29.94,North,0,0.0,0.0,73,0.00,,,0.00,WUHU216HW,2013-06-04 09:00:00,
2013-06-04 05:02:00,60.5,52.2,29.94,North,0,0.0,0.0,74,0.00,,,0.00,WUHU216HW,2013-06-04 09:02:00,
2013-06-04 05:05:00,60.5,52.2,29.94,North,0,0.0,0.0,74,0.00,,,0.00,WUHU216HW,2013-06-04 09:05:00,
2013-06-04 05:06:00,60.5,52.2,29.94,North,0,0.0,0.0,74,0.00,,,0.00,WUHU216HW,2013-06-04 09:06:00,
2013-06-04 05:07:00,60.3,52.0,29.94,North,0,0.0,0.0,74,0.00,,,0.00,WUHU216HW,2013-06-04 09:07:00,
2013-06-04 05:10:00,60.1,51.8,29.94,North,0,0.0,0.0,74,0.00,,,0.00,WUHU216HW,2013-06-04 09:10:00,
2013-06-04 05:11:00,60.1,51.8,29.94,North,0,0.0,0.0,74,0.00,,,0.00,WUHU216HW,2013-06-04 09:11:00,
2013-06-04 05:12:00,60.1,51.8,29.94,North,0,0.0,0.0,74,0.00,,,0.00,WUHU216HW,2013-06-04 09:12:00,
2013-06-04 05:13:00,60.1,52.2,29.95,North,0,0.0,0.0,75,0.00,,,0.00,WUHU216HW,2013-06-04 09:13:00,
2013-06-04 05:15:00,60.1,52.2,29.95,North,0,0.0,0.0,75,0.00,,,0.00,WUHU216HW,2013-06-04 09:15:00,
2013-06-04 05:16:00,60.1,52.2,29.95,North,0,0.0,0.0,75,0.00,,,0.00,WUHU216HW,2013-06-04 09:16:00,
2013-06-04 05:17:00,60.1,52.2,29.95,North,0,0.0,0.0,75,0.00,,,0.00,WUHU216HW,2013-06-04 09:17:00,
2013-06-04 05:18:00,59.9,52.0,29.95,North,0,0.0,0.0,75,0.00,,,0.00,WUHU216HW,2013-06-04 09:18:00,
2013-06-04 05:20:00,59.9,52.4,29.95,North,0,0.0,0.0,76,0.00,,,0.00,WUHU216HW,2013-06-04 09:20:00,
2013-06-04 05:22:00,59.8,52.2,29.95,North,0,0.0,0.0,76,0.00,,,0.00,WUHU216HW,2013-06-04 09:22:00,
2013-06-04 05:23:00,59.8,52.2,29.95,North,0,0.0,0.0,76,0.00,,,0.00,WUHU216HW,2013-06-04 09:23:00,
2013-06-04 05:25:00,59.8,52.2,29.96,North,0,0.0,0.0,76,0.00,,,0.00,WUHU216HW,2013-06-04 09:25:00,
2013-06-04 05:28:00,59.6,52.0,29.95,North,0,0.0,0.0,76,0.00,,,0.00,WUHU216HW,2013-06-04 09:28:00,
2013-06-04 05:30:00,59.6,52.0,29.96,North,0,0.0,0.0,76,0.00,,,0.00,WUHU216HW,2013-06-04 09:30:00,
2013-06-04 05:31:00,59.6,52.0,29.96,North,0,0.0,0.0,76,0.00,,,0.00,WUHU216HW,2013-06-04 09:31:00,
2013-06-04 05:33:00,59.4,51.8,29.96,North,0,0.0,0.0,76,0.00,,,0.00,WUHU216HW,2013-06-04 09:33:00,
2013-06-04 05:34:00,59.4,51.8,29.96,North,0,0.0,0.0,76,0.00,,,0.00,WUHU216HW,2013-06-04 09:34:00,
2013-06-04 05:35:00,59.4,51.8,29.96,North,0,0.0,0.0,76,0.00,,,0.00,WUHU216HW,2013-06-04 09:35:00,
2013-06-04 05:36:00,59.2,51.7,29.96,North,0,0.0,0.0,76,0.00,,,0.00,WUHU216HW,2013-06-04 09:36:00,
2013-06-04 05:38:00,59.2,51.7,29.96,North,0,0.0,0.0,76,0.00,,,0.00,WUHU216HW,2013-06-04 09:38:00,
2013-06-04 05:39:00,59.2,51.7,29.97,North,0,0.0,0.0,76,0.00,,,0.00,WUHU216HW,2013-06-04 09:39:00,
2013-06-04 05:41:00,59.2,51.7,29.96,North,0,0.0,0.0,76,0.00,,,0.00,WUHU216HW,2013-06-04 09:41:00,
2013-06-04 05:43:00,59.2,51.7,29.97,North,0,0.0,0.0,76,0.00,,,0.00,WUHU216HW,2013-06-04 09:43:00,
2013-06-04 05:44:00,59.2,51.7,29.97,North,0,0.0,0.0,76,0.00,,,0.00,WUHU216HW,2013-06-04 09:44:00,
2013-06-04 05:46:00,59.2,51.7,29.97,North,0,0.0,0.0,76,0.00,,,0.00,WUHU216HW,2013-06-04 09:46:00,
2013-06-04 05:48:00,59.2,51.7,29.97,North,0,0.0,0.0,76,0.00,,,0.00,WUHU216HW,2013-06-04 09:48:00,
2013-06-04 05:49:00,59.2,51.7,29.97,North,0,0.0,0.0,76,0.00,,,0.00,WUHU216HW,2013-06-04 09:49:00,
2013-06-04 05:52:00,59.2,51.7,29.97,North,0,0.0,0.0,76,0.00,,,0.00,WUHU216HW,2013-06-04 09:52:00,
2013-06-04 05:54:00,59.0,51.5,29.97,North,0,0.0,0.0,76,0.00,,,0.00,WUHU216HW,2013-06-04 09:54:00,
2013-06-04 05:57:00,59.0,51.5,29.98,North,0,0.0,0.0,76,0.00,,,0.00,WUHU216HW,2013-06-04 09:57:00,
2013-06-04 05:59:00,59.0,51.5,29.98,North,0,0.0,0.0,76,0.00,,,0.00,WUHU216HW,2013-06-04 09:59:00,
2013-06-04 06:02:00,59.0,51.5,29.98,North,0,0.0,0.0,76,0.00,,,0.00,WUHU216HW,2013-06-04 10:02:00,
2013-06-04 06:04:00,59.0,51.5,29.97,North,0,0.0,0.0,76,0.00,,,0.00,WUHU216HW,2013-06-04 10:04:00,
2013-06-04 06:05:00,59.0,51.5,29.98,North,0,0.0,0.0,76,0.00,,,0.00,WUHU216HW,2013-06-04 10:05:00,
2013-06-04 06:07:00,59.0,51.8,29.98,North,0,0.0,0.0,77,0.00,,,0.00,WUHU216HW,2013-06-04 10:07:00,
2013-06-04 06:08:00,59.0,51.8,29.98,North,0,0.0,0.0,77,0.00,,,0.00,WUHU216HW,2013-06-04 10:08:00,
2013-06-04 06:09:00,59.0,51.8,29.98,North,0,0.0,0.0,77,0.00,,,0.00,WUHU216HW,2013-06-04 10:09:00,
2013-06-04 06:10:00,59.0,51.8,29.98,North,0,0.0,0.0,77,0.00,,,0.00,WUHU216HW,2013-06-04 10:10:00,
2013-06-04 06:12:00,59.0,51.8,29.98,North,0,0.0,0.0,77,0.00,,,0.00,WUHU216HW,2013-06-04 10:12:00,
2013-06-04 06:14:00,59.0,51.8,29.98,North,0,0.0,0.0,77,0.00,,,0.00,WUHU216HW,2013-06-04 10:14:00,
2013-06-04 06:15:00,59.0,51.8,29.99,North,0,0.0,0.0,77,0.00,,,0.00,WUHU216HW,2013-06-04 10:15:00,
2013-06-04 06:17:00,59.0,51.8,29.98,North,0,0.0,0.0,77,0.00,,,0.00,WUHU216HW,2013-06-04 10:17:00,
2013-06-04 06:19:00,59.0,51.8,29.98,North,0,0.0,0.0,77,0.00,,,0.00,WUHU216HW,2013-06-04 10:19:00,
2013-06-04 06:20:00,59.0,51.8,29.99,North,0,0.0,0.0,77,0.00,,,0.00,WUHU216HW,2013-06-04 10:20:00,
2013-06-04 06:23:00,59.0,51.5,29.99,North,0,0.0,0.0,76,0.00,,,0.00,WUHU216HW,2013-06-04 10:23:00,
2013-06-04 06:24:00,59.0,51.8,29.99,North,0,0.0,0.0,77,0.00,,,0.00,WUHU216HW,2013-06-04 10:24:00,
2013-06-04 06:25:00,59.2,52.0,29.99,North,0,0.0,0.0,77,0.00,,,0.00,WUHU216HW,2013-06-04 10:25:00,
2013-06-04 06:28:00,59.0,51.8,29.99,North,0,0.0,0.0,77,0.00,,,0.00,WUHU216HW,2013-06-04 10:28:00,
2013-06-04 06:30:00,59.0,51.5,29.99,North,0,0.0,0.0,76,0.00,,,0.00,WUHU216HW,2013-06-04 10:30:00,
2013-06-04 06:31:00,59.0,51.5,29.99,North,0,0.0,0.0,76,0.00,,,0.00,WUHU216HW,2013-06-04 10:31:00,
2013-06-04 06:33:00,59.4,51.8,29.99,North,0,0.0,0.0,76,0.00,,,0.00,WUHU216HW,2013-06-04 10:33:00,
2013-06-04 06:35:00,59.4,51.8,29.99,North,0,0.0,0.0,76,0.00,,,0.00,WUHU216HW,2013-06-04 10:35:00,
2013-06-04 06:36:00,59.6,51.7,29.99,North,0,0.0,0.0,75,0.00,,,0.00,WUHU216HW,2013-06-04 10:36:00,
2013-06-04 06:37:00,59.8,51.5,29.99,North,0,0.0,0.0,74,0.00,,,0.00,WUHU216HW,2013-06-04 10:37:00,
2013-06-04 06:38:00,60.1,51.8,29.99,North,0,0.0,0.0,74,0.00,,,0.00,WUHU216HW,2013-06-04 10:38:00,
2013-06-04 06:41:00,60.7,52.0,29.99,North,0,0.0,0.0,73,0.00,,,0.00,WUHU216HW,2013-06-04 10:41:00,
2013-06-04 06:42:00,60.8,52.2,29.99,North,0,0.0,0.0,73,0.00,,,0.00,WUHU216HW,2013-06-04 10:42:00,
2013-06-04 06:44:00,61.2,52.2,29.99,North,0,0.0,0.0,72,0.00,,,0.00,WUHU216HW,2013-06-04 10:44:00,
2013-06-04 06:46:00,61.9,52.5,29.99,North,0,0.0,0.0,71,0.00,,,0.00,WUHU216HW,2013-06-04 10:46:00,
2013-06-04 06:47:00,62.3,52.7,29.99,North,0,0.0,0.0,71,0.00,,,0.00,WUHU216HW,2013-06-04 10:47:00,
2013-06-04 06:49:00,62.6,52.7,29.99,North,0,0.0,0.0,70,0.00,,,0.00,WUHU216HW,2013-06-04 10:49:00,
2013-06-04 06:51:00,63.2,52.5,29.99,North,0,0.0,0.0,68,0.00,,,0.00,WUHU216HW,2013-06-04 10:51:00,
2013-06-04 06:52:00,63.2,52.5,29.99,North,0,0.0,0.0,68,0.00,,,0.00,WUHU216HW,2013-06-04 10:52:00,
2013-06-04 06:54:00,63.7,52.1,30.00,North,0,0.0,0.0,66,0.00,,,0.00,WUHU216HW,2013-06-04 10:54:00,
2013-06-04 06:57:00,63.9,51.8,30.00,North,0,0.0,0.0,65,0.00,,,0.00,WUHU216HW,2013-06-04 10:57:00,
2013-06-04 06:59:00,64.3,52.2,30.00,North,0,0.0,0.0,65,0.00,,,0.00,WUHU216HW,2013-06-04 10:59:00,
2013-06-04 07:02:00,64.4,51.9,30.00,North,0,0.0,0.0,64,0.00,,,0.00,WUHU216HW,2013-06-04 11:02:00,
2013-06-04 07:05:00,64.4,51.5,30.00,North,0,0.0,0.0,63,0.00,,,0.00,WUHU216HW,2013-06-04 11:05:00,
2013-06-04 07:07:00,64.6,51.7,30.01,North,0,0.0,0.0,63,0.00,,,0.00,WUHU216HW,2013-06-04 11:07:00,
2013-06-04 07:10:00,65.0,51.6,30.01,North,0,0.0,0.0,62,0.00,,,0.00,WUHU216HW,2013-06-04 11:10:00,
2013-06-04 07:12:00,65.2,51.8,30.01,North,0,0.0,0.0,62,0.00,,,0.00,WUHU216HW,2013-06-04 11:12:00,
2013-06-04 07:15:00,65.3,51.6,30.01,North,0,0.0,0.0,61,0.00,,,0.00,WUHU216HW,2013-06-04 11:15:00,
2013-06-04 07:17:00,65.3,51.6,30.01,North,0,0.0,0.0,61,0.00,,,0.00,WUHU216HW,2013-06-04 11:17:00,
2013-06-04 07:18:00,65.3,51.6,30.01,North,0,0.0,0.0,61,0.00,,,0.00,WUHU216HW,2013-06-04 11:18:00,
2013-06-04 07:20:00,66.2,51.6,30.01,North,0,0.0,0.0,59,0.00,,,0.00,WUHU216HW,2013-06-04 11:20:00,
2013-06-04 07:22:00,66.4,51.7,30.01,North,0,0.0,0.0,59,0.00,,,0.00,WUHU216HW,2013-06-04 11:22:00,
2013-06-04 07:23:00,66.4,51.7,30.01,North,0,0.0,0.0,59,0.00,,,0.00,WUHU216HW,2013-06-04 11:23:00,
2013-06-04 07:25:00,66.6,52.4,30.01,North,0,0.0,0.0,60,0.00,,,0.00,WUHU216HW,2013-06-04 11:25:00,
2013-06-04 07:28:00,66.4,51.7,30.01,North,0,0.0,0.0,59,0.00,,,0.00,WUHU216HW,2013-06-04 11:28:00,
2013-06-04 07:31:00,65.5,50.9,30.01,North,0,0.0,0.0,59,0.00,,,0.00,WUHU216HW,2013-06-04 11:31:00,
2013-06-04 07:33:00,65.3,50.1,30.01,North,0,0.0,0.0,58,0.00,,,0.00,WUHU216HW,2013-06-04 11:33:00,
2013-06-04 07:34:00,65.2,50.5,30.01,North,0,0.0,0.0,59,0.00,,,0.00,WUHU216HW,2013-06-04 11:34:00,
2013-06-04 07:36:00,65.0,50.3,30.01,North,0,0.0,0.0,59,0.00,,,0.00,WUHU216HW,2013-06-04 11:36:00,
2013-06-04 07:38:00,65.2,50.9,30.01,North,0,0.0,0.0,60,0.00,,,0.00,WUHU216HW,2013-06-04 11:38:00,
2013-06-04 07:39:00,65.2,50.9,30.02,North,0,0.0,0.0,60,0.00,,,0.00,WUHU216HW,2013-06-04 11:39:00,
2013-06-04 07:42:00,66.2,51.6,30.01,North,0,0.0,0.0,59,0.00,,,0.00,WUHU216HW,2013-06-04 11:42:00,
2013-06-04 07:43:00,66.6,51.4,30.01,North,0,0.0,0.0,58,0.00,,,0.00,WUHU216HW,2013-06-04 11:43:00,
2013-06-04 07:44:00,66.8,51.0,30.01,North,0,0.0,0.0,57,0.00,,,0.00,WUHU216HW,2013-06-04 11:44:00,
2013-06-04 07:45:00,66.8,51.0,30.02,North,0,0.0,0.0,57,0.00,,,0.00,WUHU216HW,2013-06-04 11:45:00,
2013-06-04 07:47:00,67.1,51.4,30.02,North,0,0.0,0.0,57,0.00,,,0.00,WUHU216HW,2013-06-04 11:47:00,
2013-06-04 07:48:00,67.1,50.4,30.02,North,0,0.0,0.0,55,0.00,,,0.00,WUHU216HW,2013-06-04 11:48:00,
2013-06-04 07:49:00,67.1,50.9,30.02,North,0,0.0,0.0,56,0.00,,,0.00,WUHU216HW,2013-06-04 11:49:00,
2013-06-04 07:50:00,67.0,50.8,30.02,North,0,0.0,0.0,56,0.00,,,0.00,WUHU216HW,2013-06-04 11:50:00,
2013-06-04 07:53:00,67.0,50.8,30.02,North,0,0.0,0.0,56,0.00,,,0.00,WUHU216HW,2013-06-04 11:53:00,
2013-06-04 07:54:00,67.1,50.9,30.01,North,0,0.0,0.0,56,0.00,,,0.00,WUHU216HW,2013-06-04 11:54:00,
2013-06-04 07:55:00,67.3,50.6,30.02,North,0,0.0,0.0,55,0.00,,,0.00,WUHU216HW,2013-06-04 11:55:00,
2013-06-04 07:58:00,67.5,50.2,30.02,North,0,0.0,0.0,54,0.00,,,0.00,WUHU216HW,2013-06-04 11:58:00,
2013-06-04 07:59:00,67.5,49.8,30.02,North,0,0.0,0.0,53,0.00,,,0.00,WUHU216HW,2013-06-04 11:59:00,
2013-06-04 08:00:00,67.3,50.0,30.02,North,0,0.0,0.0,54,0.00,,,0.00,WUHU216HW,2013-06-04 12:00:00,
2013-06-04 08:01:00,67.3,50.0,30.02,North,0,0.0,0.0,54,0.00,,,0.00,WUHU216HW,2013-06-04 12:01:00,
2013-06-04 08:03:00,67.3,50.0,30.02,North,0,0.0,0.0,54,0.00,,,0.00,WUHU216HW,2013-06-04 12:03:00,
2013-06-04 08:04:00,67.3,50.0,30.02,North,0,0.0,0.0,54,0.00,,,0.00,WUHU216HW,2013-06-04 12:04:00,
2013-06-04 08:05:00,67.3,50.0,30.02,North,0,0.0,0.0,54,0.00,,,0.00,WUHU216HW,2013-06-04 12:05:00,
2013-06-04 08:06:00,67.3,50.0,30.02,North,0,0.0,0.0,54,0.00,,,0.00,WUHU216HW,2013-06-04 12:06:00,
2013-06-04 08:09:00,67.7,50.4,30.02,North,0,0.0,0.0,54,0.00,,,0.00,WUHU216HW,2013-06-04 12:09:00,
2013-06-04 08:10:00,67.9,50.0,30.02,North,0,0.0,0.0,53,0.00,,,0.00,WUHU216HW,2013-06-04 12:10:00,
2013-06-04 08:11:00,67.9,49.6,30.02,North,0,0.0,0.0,52,0.00,,,0.00,WUHU216HW,2013-06-04 12:11:00,
2013-06-04 08:14:00,68.0,49.8,30.02,North,0,0.0,0.0,52,0.00,,,0.00,WUHU216HW,2013-06-04 12:14:00,
2013-06-04 08:15:00,68.0,50.2,30.02,North,0,0.0,0.0,53,0.00,,,0.00,WUHU216HW,2013-06-04 12:15:00,
2013-06-04 08:16:00,68.0,50.2,30.02,North,0,0.0,0.0,53,0.00,,,0.00,WUHU216HW,2013-06-04 12:16:00,
2013-06-04 08:17:00,68.0,50.2,30.02,North,0,0.0,0.0,53,0.00,,,0.00,WUHU216HW,2013-06-04 12:17:00,
2013-06-04 08:19:00,68.0,49.8,30.02,North,0,0.0,0.0,52,0.00,,,0.00,WUHU216HW,2013-06-04 12:19:00,
2013-06-04 08:20:00,68.0,49.2,30.02,North,0,0.0,0.0,51,0.00,,,0.00,WUHU216HW,2013-06-04 12:20:00,
2013-06-04 08:21:00,68.0,49.2,30.02,North,0,0.0,0.0,51,0.00,,,0.00,WUHU216HW,2013-06-04 12:21:00,
2013-06-04 08:22:00,68.0,49.2,30.02,North,0,0.0,0.0,51,0.00,,,0.00,WUHU216HW,2013-06-04 12:22:00,
2013-06-04 08:25:00,68.0,50.2,30.01,North,0,0.0,0.0,53,0.00,,,0.00,WUHU216HW,2013-06-04 12:25:00,
2013-06-04 08:27:00,68.4,50.6,30.02,North,0,0.0,0.0,53,0.00,,,0.00,WUHU216HW,2013-06-04 12:27:00,
2013-06-04 08:30:00,68.8,51.0,30.02,North,0,0.0,0.0,53,0.00,,,0.00,WUHU216HW,2013-06-04 12:30:00,
2013-06-04 08:32:00,68.9,50.6,30.02,North,0,0.0,0.0,52,0.00,,,0.00,WUHU216HW,2013-06-04 12:32:00,
2013-06-04 08:33:00,69.1,50.8,30.02,North,0,0.0,0.0,52,0.00,,,0.00,WUHU216HW,2013-06-04 12:33:00,
2013-06-04 08:35:00,69.3,50.0,30.02,North,0,0.0,0.0,50,0.00,,,0.00,WUHU216HW,2013-06-04 12:35:00,
2013-06-04 08:36:00,69.3,50.0,30.02,North,0,0.0,0.0,50,0.00,,,0.00,WUHU216HW,2013-06-04 12:36:00,
2013-06-04 08:37:00,69.1,49.8,30.02,North,0,0.0,0.0,50,0.00,,,0.00,WUHU216HW,2013-06-04 12:37:00,
2013-06-04 08:38:00,69.1,50.2,30.02,North,0,0.0,0.0,51,0.00,,,0.00,WUHU216HW,2013-06-04 12:38:00,
2013-06-04 08:40:00,69.1,49.8,30.03,North,0,0.0,0.0,50,0.00,,,0.00,WUHU216HW,2013-06-04 12:40:00,
2013-06-04 08:41:00,69.1,49.8,30.03,North,0,0.0,0.0,50,0.00,,,0.00,WUHU216HW,2013-06-04 12:41:00,
2013-06-04 08:42:00,69.1,49.1,30.03,North,0,0.0,0.0,49,0.00,,,0.00,WUHU216HW,2013-06-04 12:42:00,
2013-06-04 08:43:00,68.8,49.4,30.03,North,0,0.0,0.0,50,0.00,,,0.00,WUHU216HW,2013-06-04 12:43:00,
2013-06-04 08:46:00,68.4,49.2,30.03,North,0,0.0,0.0,50,0.00,,,0.00,WUHU216HW,2013-06-04 12:46:00,
2013-06-04 08:47:00,68.0,49.2,30.03,North,0,0.0,0.0,51,0.00,,,0.00,WUHU216HW,2013-06-04 12:47:00,
2013-06-04 08:48:00,68.0,48.8,30.03,North,0,0.0,0.0,50,0.00,,,0.00,WUHU216HW,2013-06-04 12:48:00,
2013-06-04 08:52:00,67.9,49.2,30.03,North,0,0.0,0.0,51,0.00,,,0.00,WUHU216HW,2013-06-04 12:52:00,
2013-06-04 08:53:00,67.9,49.6,30.03,North,0,0.0,0.0,52,0.00,,,0.00,WUHU216HW,2013-06-04 12:53:00,
2013-06-04 08:57:00,67.9,49.2,30.03,North,0,0.0,0.0,51,0.00,,,0.00,WUHU216HW,2013-06-04 12:57:00,
2013-06-04 08:58:00,67.9,49.2,30.03,North,0,0.0,0.0,51,0.00,,,0.00,WUHU216HW,2013-06-04 12:58:00,
2013-06-04 09:02:00,68.0,48.8,30.04,North,0,0.0,0.0,50,0.00,,,0.00,WUHU216HW,2013-06-04 13:02:00,
2013-06-04 09:03:00,68.0,49.2,30.04,North,0,0.0,0.0,51,0.00,,,0.00,WUHU216HW,2013-06-04 13:03:00,
2013-06-04 09:04:00,68.2,49.0,30.04,North,0,0.0,0.0,50,0.00,,,0.00,WUHU216HW,2013-06-04 13:04:00,
2013-06-04 09:07:00,68.0,48.2,30.04,North,0,0.0,0.0,49,0.00,,,0.00,WUHU216HW,2013-06-04 13:07:00,
2013-06-04 09:08:00,68.0,47.6,30.04,North,0,0.0,0.0,48,0.00,,,0.00,WUHU216HW,2013-06-04 13:08:00,
2013-06-04 09:10:00,67.7,48.4,30.04,North,0,0.0,0.0,50,0.00,,,0.00,WUHU216HW,2013-06-04 13:10:00,
2013-06-04 09:12:00,67.9,49.2,30.04,North,0,0.0,0.0,51,0.00,,,0.00,WUHU216HW,2013-06-04 13:12:00,
2013-06-04 09:13:00,68.0,49.2,30.04,North,0,0.0,0.0,51,0.00,,,0.00,WUHU216HW,2013-06-04 13:13:00,
2013-06-04 09:14:00,68.0,49.2,30.04,North,0,0.0,0.0,51,0.00,,,0.00,WUHU216HW,2013-06-04 13:14:00,
2013-06-04 09:15:00,68.0,48.2,30.04,North,0,0.0,0.0,49,0.00,,,0.00,WUHU216HW,2013-06-04 13:15:00,
2013-06-04 09:18:00,68.0,49.2,30.04,North,0,0.0,0.0,51,0.00,,,0.00,WUHU216HW,2013-06-04 13:18:00,
2013-06-04 09:19:00,68.0,49.2,30.04,North,0,0.0,0.0,51,0.00,,,0.00,WUHU216HW,2013-06-04 13:19:00,
2013-06-04 09:20:00,68.0,49.2,30.04,North,0,0.0,0.0,51,0.00,,,0.00,WUHU216HW,2013-06-04 13:20:00,
2013-06-04 09:23:00,68.0,49.2,30.04,North,0,0.0,0.0,51,0.00,,,0.00,WUHU216HW,2013-06-04 13:23:00,
2013-06-04 09:24:00,68.0,49.2,30.04,North,0,0.0,0.0,51,0.00,,,0.00,WUHU216HW,2013-06-04 13:24:00,
2013-06-04 09:27:00,68.2,50.0,30.04,North,0,0.0,0.0,52,0.00,,,0.00,WUHU216HW,2013-06-04 13:27:00,
2013-06-04 09:28:00,68.2,50.0,30.04,North,0,0.0,0.0,52,0.00,,,0.00,WUHU216HW,2013-06-04 13:28:00,
2013-06-04 09:29:00,68.2,50.0,30.04,North,0,0.0,0.0,52,0.00,,,0.00,WUHU216HW,2013-06-04 13:29:00,
2013-06-04 09:32:00,68.8,48.9,30.04,North,0,0.0,0.0,49,0.00,,,0.00,WUHU216HW,2013-06-04 13:32:00,
2013-06-04 09:34:00,68.6,48.7,30.04,North,0,0.0,0.0,49,0.00,,,0.00,WUHU216HW,2013-06-04 13:34:00,
2013-06-04 09:35:00,68.4,48.5,30.04,North,0,0.0,0.0,49,0.00,,,0.00,WUHU216HW,2013-06-04 13:35:00,
2013-06-04 09:37:00,68.4,49.2,30.05,North,0,0.0,0.0,50,0.00,,,0.00,WUHU216HW,2013-06-04 13:37:00,
2013-06-04 09:39:00,68.4,49.2,30.05,North,0,0.0,0.0,50,0.00,,,0.00,WUHU216HW,2013-06-04 13:39:00,
2013-06-04 09:40:00,68.4,49.2,30.05,North,0,0.0,0.0,50,0.00,,,0.00,WUHU216HW,2013-06-04 13:40:00,
2013-06-04 09:42:00,68.8,49.4,30.05,North,0,0.0,0.0,50,0.00,,,0.00,WUHU216HW,2013-06-04 13:42:00,
2013-06-04 09:44:00,68.8,49.4,30.05,North,0,0.0,0.0,50,0.00,,,0.00,WUHU216HW,2013-06-04 13:44:00,
2013-06-04 09:45:00,68.8,49.4,30.05,North,0,0.0,0.0,50,0.00,,,0.00,WUHU216HW,2013-06-04 13:45:00,
2013-06-04 09:47:00,69.5,49.5,30.05,North,0,0.0,0.0,49,0.00,,,0.00,WUHU216HW,2013-06-04 13:47:00,
2013-06-04 09:49:00,69.5,48.9,30.05,North,0,0.0,0.0,48,0.00,,,0.00,WUHU216HW,2013-06-04 13:49:00,
2013-06-04 09:50:00,69.5,48.9,30.05,North,0,0.0,0.0,48,0.00,,,0.00,WUHU216HW,2013-06-04 13:50:00,
2013-06-04 09:52:00,69.5,48.9,30.05,North,0,0.0,0.0,48,0.00,,,0.00,WUHU216HW,2013-06-04 13:52:00,
2013-06-04 09:54:00,69.1,48.6,30.05,North,0,0.0,0.0,48,0.00,,,0.00,WUHU216HW,2013-06-04 13:54:00,
2013-06-04 09:55:00,69.1,48.6,30.05,North,0,0.0,0.0,48,0.00,,,0.00,WUHU216HW,2013-06-04 13:55:00,
2013-06-04 09:58:00,69.3,48.7,30.05,North,0,0.0,0.0,48,0.00,,,0.00,WUHU216HW,2013-06-04 13:58:00,
2013-06-04 09:59:00,69.3,48.2,30.05,North,0,0.0,0.0,47,0.00,,,0.00,WUHU216HW,2013-06-04 13:59:00,
2013-06-04 10:00:00,69.1,48.6,30.05,North,0,0.0,0.0,48,0.00,,,0.00,WUHU216HW,2013-06-04 14:00:00,
2013-06-04 10:03:00,69.3,48.2,30.05,North,0,0.0,0.0,47,0.00,,,0.00,WUHU216HW,2013-06-04 14:03:00,
2013-06-04 10:04:00,69.3,48.2,30.05,North,0,0.0,0.0,47,0.00,,,0.00,WUHU216HW,2013-06-04 14:04:00,
2013-06-04 10:05:00,69.3,48.7,30.05,North,0,0.0,0.0,48,0.00,,,0.00,WUHU216HW,2013-06-04 14:05:00,
2013-06-04 10:09:00,69.5,48.9,30.06,North,0,0.0,0.0,48,0.00,,,0.00,WUHU216HW,2013-06-04 14:09:00,
2013-06-04 10:10:00,69.7,49.7,30.05,North,0,0.0,0.0,49,0.00,,,0.00,WUHU216HW,2013-06-04 14:10:00,
2013-06-04 10:11:00,69.7,49.7,30.05,North,0,0.0,0.0,49,0.00,,,0.00,WUHU216HW,2013-06-04 14:11:00,
2013-06-04 10:14:00,69.7,49.7,30.06,North,0,0.0,0.0,49,0.00,,,0.00,WUHU216HW,2013-06-04 14:14:00,
2013-06-04 10:16:00,69.7,49.7,30.05,North,0,0.0,0.0,49,0.00,,,0.00,WUHU216HW,2013-06-04 14:16:00,
2013-06-04 10:19:00,70.0,50.0,30.05,North,0,0.0,0.0,49,0.00,,,0.00,WUHU216HW,2013-06-04 14:19:00,
2013-06-04 10:21:00,70.0,50.0,30.05,North,0,0.0,0.0,49,0.00,,,0.00,WUHU216HW,2013-06-04 14:21:00,
2013-06-04 10:22:00,70.0,50.0,30.05,North,0,0.0,0.0,49,0.00,,,0.00,WUHU216HW,2013-06-04 14:22:00,
2013-06-04 10:24:00,70.7,50.1,30.05,North,0,0.0,0.0,48,0.00,,,0.00,WUHU216HW,2013-06-04 14:24:00,
2013-06-04 10:25:00,70.7,50.1,30.06,North,0,0.0,0.0,48,0.00,,,0.00,WUHU216HW,2013-06-04 14:25:00,
2013-06-04 10:26:00,70.9,50.2,30.05,North,0,0.0,0.0,48,0.00,,,0.00,WUHU216HW,2013-06-04 14:26:00,
2013-06-04 10:27:00,70.9,50.2,30.05,North,0,0.0,0.0,48,0.00,,,0.00,WUHU216HW,2013-06-04 14:27:00,
2013-06-04 10:30:00,71.5,51.3,30.05,North,0,0.0,0.0,49,0.00,,,0.00,WUHU216HW,2013-06-04 14:30:00,
2013-06-04 10:31:00,71.5,51.3,30.05,North,0,0.0,0.0,49,0.00,,,0.00,WUHU216HW,2013-06-04 14:31:00,
2013-06-04 10:32:00,71.5,51.3,30.06,North,0,0.0,0.0,49,0.00,,,0.00,WUHU216HW,2013-06-04 14:32:00,
2013-06-04 10:35:00,71.6,50.2,30.06,North,0,0.0,0.0,47,0.00,,,0.00,WUHU216HW,2013-06-04 14:35:00,
2013-06-04 10:36:00,71.6,50.2,30.06,North,0,0.0,0.0,47,0.00,,,0.00,WUHU216HW,2013-06-04 14:36:00,
2013-06-04 10:37:00,71.6,50.2,30.06,North,0,0.0,0.0,47,0.00,,,0.00,WUHU216HW,2013-06-04 14:37:00,
2013-06-04 10:40:00,72.0,51.1,30.05,North,0,0.0,0.0,48,0.00,,,0.00,WUHU216HW,2013-06-04 14:40:00,
2013-06-04 10:41:00,72.4,50.9,30.05,North,0,0.0,0.0,47,0.00,,,0.00,WUHU216HW,2013-06-04 14:41:00,
2013-06-04 10:42:00,72.4,50.9,30.06,North,0,0.0,0.0,47,0.00,,,0.00,WUHU216HW,2013-06-04 14:42:00,
2013-06-04 10:43:00,72.4,50.9,30.06,North,0,0.0,0.0,47,0.00,,,0.00,WUHU216HW,2013-06-04 14:43:00,
2013-06-04 10:46:00,72.2,50.1,30.06,North,0,0.0,0.0,46,0.00,,,0.00,WUHU216HW,2013-06-04 14:46:00,
2013-06-04 10:47:00,72.2,50.8,30.06,North,0,0.0,0.0,47,0.00,,,0.00,WUHU216HW,2013-06-04 14:47:00,
2013-06-04 10:48:00,72.2,50.8,30.06,North,0,0.0,0.0,47,0.00,,,0.00,WUHU216HW,2013-06-04 14:48:00,
2013-06-04 10:51:00,72.2,50.8,30.06,North,0,0.0,0.0,47,0.00,,,0.00,WUHU216HW,2013-06-04 14:51:00,
2013-06-04 10:53:00,72.2,50.8,30.06,North,0,0.0,0.0,47,0.00,,,0.00,WUHU216HW,2013-06-04 14:53:00,
2013-06-04 10:56:00,73.1,50.9,30.06,North,0,0.0,0.0,46,0.00,,,0.00,WUHU216HW,2013-06-04 14:56:00,
2013-06-04 10:58:00,73.1,51.6,30.06,North,0,0.0,0.0,47,0.00,,,0.00,WUHU216HW,2013-06-04 14:58:00,
2013-06-04 11:01:00,74.0,52.4,30.06,North,0,0.0,0.0,47,0.00,,,0.00,WUHU216HW,2013-06-04 15:01:00,
2013-06-04 11:03:00,74.0,52.4,30.05,North,0,0.0,0.0,47,0.00,,,0.00,WUHU216HW,2013-06-04 15:03:00,
2013-06-04 11:04:00,74.0,52.4,30.05,North,0,0.0,0.0,47,0.00,,,0.00,WUHU216HW,2013-06-04 15:04:00,
2013-06-04 11:07:00,74.5,52.3,30.06,North,0,0.0,0.0,46,0.00,,,0.00,WUHU216HW,2013-06-04 15:07:00,
2013-06-04 11:08:00,74.5,52.3,30.06,North,0,0.0,0.0,46,0.00,,,0.00,WUHU216HW,2013-06-04 15:08:00,
2013-06-04 11:09:00,74.5,52.3,30.06,North,0,0.0,0.0,46,0.00,,,0.00,WUHU216HW,2013-06-04 15:09:00,
2013-06-04 11:12:00,74.9,52.7,30.06,North,0,0.0,0.0,46,0.00,,,0.00,WUHU216HW,2013-06-04 15:12:00,
2013-06-04 11:13:00,74.9,52.7,30.06,North,0,0.0,0.0,46,0.00,,,0.00,WUHU216HW,2013-06-04 15:13:00,
2013-06-04 11:14:00,74.9,52.0,30.06,North,0,0.0,0.0,45,0.00,,,0.00,WUHU216HW,2013-06-04 15:14:00,
2013-06-04 11:17:00,74.9,52.0,30.06,North,0,0.0,0.0,45,0.00,,,0.00,WUHU216HW,2013-06-04 15:17:00,
2013-06-04 11:18:00,74.7,51.8,30.06,North,0,0.0,0.0,45,0.00,,,0.00,WUHU216HW,2013-06-04 15:18:00,
2013-06-04 11:19:00,74.9,51.4,30.06,North,0,0.0,0.0,44,0.00,,,0.00,WUHU216HW,2013-06-04 15:19:00,
2013-06-04 11:23:00,74.7,51.8,30.06,North,0,0.0,0.0,45,0.00,,,0.00,WUHU216HW,2013-06-04 15:23:00,
2013-06-04 11:24:00,74.7,51.8,30.06,North,0,0.0,0.0,45,0.00,,,0.00,WUHU216HW,2013-06-04 15:24:00,
2013-06-04 11:28:00,74.7,51.8,30.06,North,0,0.0,0.0,45,0.00,,,0.00,WUHU216HW,2013-06-04 15:28:00,
2013-06-04 11:29:00,74.7,51.8,30.06,North,0,0.0,0.0,45,0.00,,,0.00,WUHU216HW,2013-06-04 15:29:00,
2013-06-04 11:34:00,74.7,51.8,30.06,North,0,0.0,0.0,45,0.00,,,0.00,WUHU216HW,2013-06-04 15:34:00,
2013-06-04 11:35:00,74.7,51.8,30.06,North,0,0.0,0.0,45,0.00,,,0.00,WUHU216HW,2013-06-04 15:35:00,
2013-06-04 11:39:00,75.4,51.9,30.06,North,0,0.0,0.0,44,0.00,,,0.00,WUHU216HW,2013-06-04 15:39:00,
2013-06-04 11:40:00,75.4,51.9,30.06,North,0,0.0,0.0,44,0.00,,,0.00,WUHU216HW,2013-06-04 15:40:00,
2013-06-04 11:44:00,75.8,52.8,30.06,North,0,0.0,0.0,45,0.00,,,0.00,WUHU216HW,2013-06-04 15:44:00,
2013-06-04 11:45:00,75.8,52.8,30.06,North,0,0.0,0.0,45,0.00,,,0.00,WUHU216HW,2013-06-04 15:45:00,
2013-06-04 11:49:00,75.2,54.2,30.06,North,0,0.0,0.0,48,0.00,,,0.00,WUHU216HW,2013-06-04 15:49:00,
2013-06-04 11:50:00,75.2,54.2,30.06,North,0,0.0,0.0,48,0.00,,,0.00,WUHU216HW,2013-06-04 15:50:00,
2013-06-04 11:55:00,74.9,55.1,30.06,North,0,0.0,0.0,50,0.00,,,0.00,WUHU216HW,2013-06-04 15:55:00,
2013-06-04 12:00:00,74.9,55.1,30.06,North,0,0.0,0.0,50,0.00,,,0.00,WUHU216HW,2013-06-04 16:00:00,
2013-06-04 12:01:00,74.9,55.1,30.06,North,0,0.0,0.0,50,0.00,,,0.00,WUHU216HW,2013-06-04 16:01:00,
2013-06-04 12:05:00,74.9,55.1,30.06,North,0,0.0,0.0,50,0.00,,,0.00,WUHU216HW,2013-06-04 16:05:00,
2013-06-04 12:07:00,72.5,53.8,30.06,North,0,0.0,0.0,52,0.00,,,0.00,WUHU216HW,2013-06-04 16:07:00,
2013-06-04 12:10:00,72.5,53.8,30.06,North,0,0.0,0.0,52,0.00,,,0.00,WUHU216HW,2013-06-04 16:10:00,
2013-06-04 12:11:00,72.5,53.8,30.06,North,0,0.0,0.0,52,0.00,,,0.00,WUHU216HW,2013-06-04 16:11:00,
2013-06-04 12:12:00,72.5,53.8,30.06,North,0,0.0,0.0,52,0.00,,,0.00,WUHU216HW,2013-06-04 16:12:00,
2013-06-04 12:15:00,72.4,54.2,30.06,North,0,0.0,0.0,53,0.00,,,0.00,WUHU216HW,2013-06-04 16:15:00,
2013-06-04 12:16:00,72.4,54.2,30.06,North,0,0.0,0.0,53,0.00,,,0.00,WUHU216HW,2013-06-04 16:16:00,
2013-06-04 12:17:00,72.4,54.2,30.06,North,0,0.0,0.0,53,0.00,,,0.00,WUHU216HW,2013-06-04 16:17:00,
2013-06-04 12:20:00,72.2,54.0,30.06,North,0,0.0,0.0,53,0.00,,,0.00,WUHU216HW,2013-06-04 16:20:00,
2013-06-04 12:21:00,72.2,54.0,30.06,North,0,0.0,0.0,53,0.00,,,0.00,WUHU216HW,2013-06-04 16:21:00,
2013-06-04 12:22:00,72.2,54.0,30.06,North,0,0.0,0.0,53,0.00,,,0.00,WUHU216HW,2013-06-04 16:22:00,
2013-06-04 12:23:00,72.2,54.0,30.06,North,0,0.0,0.0,53,0.00,,,0.00,WUHU216HW,2013-06-04 16:23:00,
2013-06-04 12:25:00,72.2,54.0,30.06,North,0,0.0,0.0,53,0.00,,,0.00,WUHU216HW,2013-06-04 16:25:00,
2013-06-04 12:27:00,72.2,54.0,30.06,North,0,0.0,0.0,53,0.00,,,0.00,WUHU216HW,2013-06-04 16:27:00,
2013-06-04 12:28:00,72.2,54.0,30.06,North,0,0.0,0.0,53,0.00,,,0.00,WUHU216HW,2013-06-04 16:28:00,
2013-06-04 12:30:00,72.7,54.6,30.06,North,0,0.0,0.0,53,0.00,,,0.00,WUHU216HW,2013-06-04 16:30:00,
2013-06-04 12:32:00,72.7,54.6,30.06,North,0,0.0,0.0,53,0.00,,,0.00,WUHU216HW,2013-06-04 16:32:00,
2013-06-04 12:33:00,72.7,54.6,30.06,North,0,0.0,0.0,53,0.00,,,0.00,WUHU216HW,2013-06-04 16:33:00,
2013-06-04 12:35:00,72.7,54.6,30.06,North,0,0.0,0.0,53,0.00,,,0.00,WUHU216HW,2013-06-04 16:35:00,
2013-06-04 12:37:00,72.4,54.7,30.06,North,0,0.0,0.0,54,0.00,,,0.00,WUHU216HW,2013-06-04 16:37:00,
2013-06-04 12:38:00,72.4,54.7,30.06,North,0,0.0,0.0,54,0.00,,,0.00,WUHU216HW,2013-06-04 16:38:00,
2013-06-04 12:39:00,72.4,54.7,30.06,North,0,0.0,0.0,54,0.00,,,0.00,WUHU216HW,2013-06-04 16:39:00,
2013-06-04 12:41:00,72.4,54.7,30.06,North,0,0.0,0.0,54,0.00,,,0.00,WUHU216HW,2013-06-04 16:41:00,
2013-06-04 12:42:00,72.4,54.7,30.06,North,0,0.0,0.0,54,0.00,,,0.00,WUHU216HW,2013-06-04 16:42:00,
2013-06-04 12:43:00,72.4,54.7,30.06,North,0,0.0,0.0,54,0.00,,,0.00,WUHU216HW,2013-06-04 16:43:00,
2013-06-04 12:44:00,72.4,54.7,30.05,North,0,0.0,0.0,54,0.00,,,0.00,WUHU216HW,2013-06-04 16:44:00,
2013-06-04 12:46:00,72.2,54.6,30.06,North,0,0.0,0.0,54,0.00,,,0.00,WUHU216HW,2013-06-04 16:46:00,
2013-06-04 12:47:00,72.2,54.6,30.06,North,0,0.0,0.0,54,0.00,,,0.00,WUHU216HW,2013-06-04 16:47:00,
2013-06-04 12:48:00,72.2,54.6,30.05,North,0,0.0,0.0,54,0.00,,,0.00,WUHU216HW,2013-06-04 16:48:00,
2013-06-04 12:49:00,72.2,54.6,30.05,North,0,0.0,0.0,54,0.00,,,0.00,WUHU216HW,2013-06-04 16:49:00,
2013-06-04 12:51:00,72.4,55.2,30.05,North,0,0.0,0.0,55,0.00,,,0.00,WUHU216HW,2013-06-04 16:51:00,
2013-06-04 12:53:00,72.4,55.2,30.05,North,0,0.0,0.0,55,0.00,,,0.00,WUHU216HW,2013-06-04 16:53:00,
2013-06-04 12:54:00,72.4,55.2,30.05,North,0,0.0,0.0,55,0.00,,,0.00,WUHU216HW,2013-06-04 16:54:00,
2013-06-04 12:57:00,72.4,55.2,30.05,North,0,0.0,0.0,55,0.00,,,0.00,WUHU216HW,2013-06-04 16:57:00,
2013-06-04 12:58:00,72.4,55.2,30.05,North,0,0.0,0.0,55,0.00,,,0.00,WUHU216HW,2013-06-04 16:58:00,
2013-06-04 12:59:00,72.4,55.2,30.05,North,0,0.0,0.0,55,0.00,,,0.00,WUHU216HW,2013-06-04 16:59:00,
2013-06-04 13:02:00,72.4,55.2,30.05,North,0,0.0,0.0,55,0.00,,,0.00,WUHU216HW,2013-06-04 17:02:00,
2013-06-04 13:03:00,72.4,55.2,30.06,North,0,0.0,0.0,55,0.00,,,0.00,WUHU216HW,2013-06-04 17:03:00,
2013-06-04 13:04:00,72.4,55.2,30.06,North,0,0.0,0.0,55,0.00,,,0.00,WUHU216HW,2013-06-04 17:04:00,
2013-06-04 13:06:00,72.4,55.2,30.05,North,0,0.0,0.0,55,0.00,,,0.00,WUHU216HW,2013-06-04 17:06:00,
2013-06-04 13:07:00,72.4,55.2,30.05,North,0,0.0,0.0,55,0.00,,,0.00,WUHU216HW,2013-06-04 17:07:00,
2013-06-04 13:09:00,72.4,55.2,30.05,North,0,0.0,0.0,55,0.00,,,0.00,WUHU216HW,2013-06-04 17:09:00,
2013-06-04 13:12:00,72.4,55.2,30.05,North,0,0.0,0.0,55,0.00,,,0.00,WUHU216HW,2013-06-04 17:12:00,
2013-06-04 13:14:00,72.4,55.2,30.05,North,0,0.0,0.0,55,0.00,,,0.00,WUHU216HW,2013-06-04 17:14:00,
2013-06-04 14:12:00,72.7,55.5,30.05,North,0,0.0,0.0,55,0.00,,,0.00,WUHU216HW,2013-06-04 18:12:00,
2013-06-04 14:17:00,72.4,54.2,30.04,North,0,0.0,0.0,53,0.00,,,0.00,WUHU216HW,2013-06-04 18:17:00,
2013-06-04 14:22:00,71.5,54.4,30.04,North,0,0.0,0.0,55,0.00,,,0.00,WUHU216HW,2013-06-04 18:22:00,
2013-06-04 14:23:00,71.5,54.4,30.04,North,0,0.0,0.0,55,0.00,,,0.00,WUHU216HW,2013-06-04 18:23:00,
2013-06-04 14:27:00,71.5,54.4,30.04,North,0,0.0,0.0,55,0.00,,,0.00,WUHU216HW,2013-06-04 18:27:00,
2013-06-04 14:28:00,71.5,54.4,30.05,North,0,0.0,0.0,55,0.00,,,0.00,WUHU216HW,2013-06-04 18:28:00,
2013-06-04 14:33:00,71.5,54.4,30.04,North,0,0.0,0.0,55,0.00,,,0.00,WUHU216HW,2013-06-04 18:33:00,
2013-06-04 14:36:00,71.5,54.4,30.04,North,0,0.0,0.0,55,0.00,,,0.00,WUHU216HW,2013-06-04 18:36:00,
2013-06-04 14:37:00,71.5,54.4,30.04,North,0,0.0,0.0,55,0.00,,,0.00,WUHU216HW,2013-06-04 18:37:00,
2013-06-04 14:42:00,71.5,54.4,30.04,North,0,0.0,0.0,55,0.00,,,0.00,WUHU216HW,2013-06-04 18:42:00,
2013-06-04 14:43:00,71.5,54.4,30.04,North,0,0.0,0.0,55,0.00,,,0.00,WUHU216HW,2013-06-04 18:43:00,
2013-06-04 17:47:00,68.2,54.3,30.02,North,0,0.0,0.0,61,0.00,,,0.00,WUHU216HW,2013-06-04 21:47:00,
2013-06-04 17:48:00,68.2,54.3,30.03,North,0,0.0,0.0,61,0.00,,,0.00,WUHU216HW,2013-06-04 21:48:00,
2013-06-04 17:52:00,68.0,54.1,30.03,North,0,0.0,0.0,61,0.00,,,0.00,WUHU216HW,2013-06-04 21:52:00,
2013-06-04 17:53:00,68.0,54.1,30.03,North,0,0.0,0.0,61,0.00,,,0.00,WUHU216HW,2013-06-04 21:53:00,
2013-06-04 17:57:00,67.5,54.0,30.03,North,0,0.0,0.0,62,0.00,,,0.00,WUHU216HW,2013-06-04 21:57:00,
2013-06-04 17:58:00,67.5,54.0,30.03,North,0,0.0,0.0,62,0.00,,,0.00,WUHU216HW,2013-06-04 21:58:00,
2013-06-04 18:03:00,67.3,54.3,30.03,North,0,0.0,0.0,63,0.00,,,0.00,WUHU216HW,2013-06-04 22:03:00,
2013-06-04 18:08:00,67.1,54.6,30.04,North,0,0.0,0.0,64,0.00,,,0.00,WUHU216HW,2013-06-04 22:08:00,
2013-06-04 18:09:00,67.1,54.6,30.04,North,0,0.0,0.0,64,0.00,,,0.00,WUHU216HW,2013-06-04 22:09:00,
2013-06-04 18:13:00,67.0,54.8,30.03,North,0,0.0,0.0,65,0.00,,,0.00,WUHU216HW,2013-06-04 22:13:00,
2013-06-04 18:14:00,67.0,54.8,30.03,North,0,0.0,0.0,65,0.00,,,0.00,WUHU216HW,2013-06-04 22:14:00,
2013-06-04 18:18:00,66.2,54.1,30.03,North,0,0.0,0.0,65,0.00,,,0.00,WUHU216HW,2013-06-04 22:18:00,
2013-06-04 18:19:00,66.2,54.1,30.03,North,0,0.0,0.0,65,0.00,,,0.00,WUHU216HW,2013-06-04 22:19:00,
2013-06-04 18:23:00,65.9,54.5,30.03,North,0,0.0,0.0,67,0.00,,,0.00,WUHU216HW,2013-06-04 22:23:00,
2013-06-04 18:24:00,65.9,54.5,30.03,North,0,0.0,0.0,67,0.00,,,0.00,WUHU216HW,2013-06-04 22:24:00,
2013-06-04 18:28:00,65.7,54.5,30.03,North,0,0.0,0.0,67,0.00,,,0.00,WUHU216HW,2013-06-04 22:28:00,
2013-06-04 18:29:00,65.7,54.5,30.03,North,0,0.0,0.0,67,0.00,,,0.00,WUHU216HW,2013-06-04 22:29:00,
2013-06-04 18:30:00,65.7,54.5,30.03,North,0,0.0,0.0,67,0.00,,,0.00,WUHU216HW,2013-06-04 22:30:00,
2013-06-04 18:34:00,65.5,54.3,30.03,North,0,0.0,0.0,67,0.00,,,0.00,WUHU216HW,2013-06-04 22:34:00,
2013-06-04 18:35:00,65.5,54.3,30.03,North,0,0.0,0.0,67,0.00,,,0.00,WUHU216HW,2013-06-04 22:35:00,
2013-06-04 18:39:00,65.3,54.6,30.03,North,0,0.0,0.0,68,0.00,,,0.00,WUHU216HW,2013-06-04 22:39:00,
2013-06-04 18:40:00,65.3,54.6,30.03,North,0,0.0,0.0,68,0.00,,,0.00,WUHU216HW,2013-06-04 22:40:00,
2013-06-04 18:41:00,65.3,54.6,30.03,North,0,0.0,0.0,68,0.00,,,0.00,WUHU216HW,2013-06-04 22:41:00,
2013-06-04 18:44:00,65.3,54.6,30.03,North,0,0.0,0.0,68,0.00,,,0.00,WUHU216HW,2013-06-04 22:44:00,
2013-06-04 18:45:00,65.3,54.6,30.03,North,0,0.0,0.0,68,0.00,,,0.00,WUHU216HW,2013-06-04 22:45:00,
2013-06-04 18:46:00,65.3,54.6,30.03,North,0,0.0,0.0,68,0.00,,,0.00,WUHU216HW,2013-06-04 22:46:00,
2013-06-04 18:49:00,64.6,54.7,30.03,North,0,0.0,0.0,70,0.00,,,0.00,WUHU216HW,2013-06-04 22:49:00,
2013-06-04 18:50:00,64.8,54.9,30.03,North,0,0.0,0.0,70,0.00,,,0.00,WUHU216HW,2013-06-04 22:50:00,
2013-06-04 18:51:00,64.8,54.9,30.03,North,0,0.0,0.0,70,0.00,,,0.00,WUHU216HW,2013-06-04 22:51:00,
2013-06-04 18:52:00,64.6,54.3,30.03,North,0,0.0,0.0,69,0.00,,,0.00,WUHU216HW,2013-06-04 22:52:00,
2013-06-04 18:55:00,64.6,54.7,30.03,North,0,0.0,0.0,70,0.00,,,0.00,WUHU216HW,2013-06-04 22:55:00,
2013-06-04 18:56:00,64.6,54.7,30.03,North,0,0.0,0.0,70,0.00,,,0.00,WUHU216HW,2013-06-04 22:56:00,
2013-06-04 18:57:00,64.6,54.7,30.03,North,0,0.0,0.0,70,0.00,,,0.00,WUHU216HW,2013-06-04 22:57:00,
2013-06-04 19:00:00,64.4,54.1,30.03,North,0,0.0,0.0,69,0.00,,,0.00,WUHU216HW,2013-06-04 23:00:00,
2013-06-04 19:01:00,64.4,54.1,30.03,North,0,0.0,0.0,69,0.00,,,0.00,WUHU216HW,2013-06-04 23:01:00,
2013-06-04 19:02:00,64.4,54.1,30.03,North,0,0.0,0.0,69,0.00,,,0.00,WUHU216HW,2013-06-04 23:02:00,
2013-06-04 19:05:00,64.4,54.1,30.03,North,0,0.0,0.0,69,0.00,,,0.00,WUHU216HW,2013-06-04 23:05:00,
2013-06-04 19:06:00,64.4,54.1,30.03,North,0,0.0,0.0,69,0.00,,,0.00,WUHU216HW,2013-06-04 23:06:00,
2013-06-04 19:07:00,64.4,54.1,30.03,North,0,0.0,0.0,69,0.00,,,0.00,WUHU216HW,2013-06-04 23:07:00,
2013-06-04 19:08:00,64.4,54.5,30.03,North,0,0.0,0.0,70,0.00,,,0.00,WUHU216HW,2013-06-04 23:08:00,
2013-06-04 19:10:00,64.4,54.5,30.03,North,0,0.0,0.0,70,0.00,,,0.00,WUHU216HW,2013-06-04 23:10:00,
2013-06-04 19:11:00,64.4,54.5,30.04,North,0,0.0,0.0,70,0.00,,,0.00,WUHU216HW,2013-06-04 23:11:00,
2013-06-04 19:12:00,64.4,54.5,30.04,North,0,0.0,0.0,70,0.00,,,0.00,WUHU216HW,2013-06-04 23:12:00,
2013-06-04 19:13:00,64.4,54.5,30.04,North,0,0.0,0.0,70,0.00,,,0.00,WUHU216HW,2013-06-04 23:13:00,
2013-06-04 19:16:00,64.4,54.5,30.04,North,0,0.0,0.0,70,0.00,,,0.00,WUHU216HW,2013-06-04 23:16:00,
2013-06-04 19:17:00,64.4,54.5,30.04,North,0,0.0,0.0,70,0.00,,,0.00,WUHU216HW,2013-06-04 23:17:00,
2013-06-04 19:18:00,64.4,54.5,30.04,North,0,0.0,0.0,70,0.00,,,0.00,WUHU216HW,2013-06-04 23:18:00,
2013-06-04 19:21:00,64.4,54.5,30.04,North,0,0.0,0.0,70,0.00,,,0.00,WUHU216HW,2013-06-04 23:21:00,
2013-06-04 19:22:00,64.4,54.5,30.04,North,0,0.0,0.0,70,0.00,,,0.00,WUHU216HW,2013-06-04 23:22:00,
2013-06-04 19:23:00,64.3,54.4,30.04,North,0,0.0,0.0,70,0.00,,,0.00,WUHU216HW,2013-06-04 23:23:00,
2013-06-04 19:26:00,64.3,54.4,30.04,North,0,0.0,0.0,70,0.00,,,0.00,WUHU216HW,2013-06-04 23:26:00,
2013-06-04 19:27:00,64.3,54.4,30.04,North,0,0.0,0.0,70,0.00,,,0.00,WUHU216HW,2013-06-04 23:27:00,
2013-06-04 19:28:00,64.1,54.2,30.04,North,0,0.0,0.0,70,0.00,,,0.00,WUHU216HW,2013-06-04 23:28:00,
2013-06-04 19:29:00,64.1,54.2,30.04,North,0,0.0,0.0,70,0.00,,,0.00,WUHU216HW,2013-06-04 23:29:00,
2013-06-04 19:32:00,64.1,54.2,30.04,North,0,0.0,0.0,70,0.00,,,0.00,WUHU216HW,2013-06-04 23:32:00,
2013-06-04 19:33:00,63.7,53.8,30.04,North,0,0.0,0.0,70,0.00,,,0.00,WUHU216HW,2013-06-04 23:33:00,
2013-06-04 19:34:00,63.7,53.8,30.04,North,0,0.0,0.0,70,0.00,,,0.00,WUHU216HW,2013-06-04 23:34:00,
2013-06-04 19:37:00,63.7,53.8,30.04,North,0,0.0,0.0,70,0.00,,,0.00,WUHU216HW,2013-06-04 23:37:00,
2013-06-04 19:38:00,63.5,53.6,30.04,North,0,0.0,0.0,70,0.00,,,0.00,WUHU216HW,2013-06-04 23:38:00,
2013-06-04 19:39:00,63.5,53.6,30.04,North,0,0.0,0.0,70,0.00,,,0.00,WUHU216HW,2013-06-04 23:39:00,
2013-06-04 19:40:00,63.5,53.6,30.04,North,0,0.0,0.0,70,0.00,,,0.00,WUHU216HW,2013-06-04 23:40:00,
2013-06-04 19:42:00,63.5,53.6,30.05,North,0,0.0,0.0,70,0.00,,,0.00,WUHU216HW,2013-06-04 23:42:00,
2013-06-04 19:43:00,63.4,53.5,30.05,North,0,0.0,0.0,70,0.00,,,0.00,WUHU216HW,2013-06-04 23:43:00,
2013-06-04 19:44:00,63.4,53.5,30.05,North,0,0.0,0.0,70,0.00,,,0.00,WUHU216HW,2013-06-04 23:44:00,
2013-06-04 19:45:00,63.4,53.5,30.05,North,0,0.0,0.0,70,0.00,,,0.00,WUHU216HW,2013-06-04 23:45:00,
2013-06-04 19:47:00,63.2,53.6,30.05,North,0,0.0,0.0,71,0.00,,,0.00,WUHU216HW,2013-06-04 23:47:00,
2013-06-04 19:48:00,63.2,53.6,30.05,North,0,0.0,0.0,71,0.00,,,0.00,WUHU216HW,2013-06-04 23:48:00,
2013-06-04 19:50:00,63.2,53.6,30.05,North,0,0.0,0.0,71,0.00,,,0.00,WUHU216HW,2013-06-04 23:50:00,
2013-06-04 19:52:00,63.0,53.5,30.05,North,0,0.0,0.0,71,0.00,,,0.00,WUHU216HW,2013-06-04 23:52:00,
2013-06-04 19:53:00,63.0,53.5,30.05,North,0,0.0,0.0,71,0.00,,,0.00,WUHU216HW,2013-06-04 23:53:00,
2013-06-04 19:55:00,63.0,53.5,30.05,North,0,0.0,0.0,71,0.00,,,0.00,WUHU216HW,2013-06-04 23:55:00,
2013-06-04 19:57:00,62.8,53.6,30.05,North,0,0.0,0.0,72,0.00,,,0.00,WUHU216HW,2013-06-04 23:57:00,
2013-06-04 19:58:00,62.8,53.6,30.05,North,0,0.0,0.0,72,0.00,,,0.00,WUHU216HW,2013-06-04 23:58:00,
2013-06-04 20:00:00,62.8,53.6,30.05,North,0,0.0,0.0,72,0.00,,,0.00,WUHU216HW,2013-06-05 00:00:00,
2013-06-04 20:02:00,62.5,53.3,30.05,North,0,0.0,0.0,72,0.00,,,0.00,WUHU216HW,2013-06-05 00:02:00,
2013-06-04 20:04:00,62.5,53.6,30.05,North,0,0.0,0.0,73,0.00,,,0.00,WUHU216HW,2013-06-05 00:04:00,
2013-06-04 20:05:00,62.3,53.5,30.05,North,0,0.0,0.0,73,0.00,,,0.00,WUHU216HW,2013-06-05 00:05:00,
2013-06-04 20:06:00,62.3,53.5,30.05,North,0,0.0,0.0,73,0.00,,,0.00,WUHU216HW,2013-06-05 00:06:00,
2013-06-04 20:08:00,62.3,53.1,30.05,North,0,0.0,0.0,72,0.00,,,0.00,WUHU216HW,2013-06-05 00:08:00,
2013-06-04 20:09:00,62.1,53.0,30.05,North,0,0.0,0.0,72,0.00,,,0.00,WUHU216HW,2013-06-05 00:09:00,
2013-06-04 20:10:00,62.1,53.0,30.05,North,0,0.0,0.0,72,0.00,,,0.00,WUHU216HW,2013-06-05 00:10:00,
2013-06-04 20:11:00,62.1,53.0,30.05,North,0,0.0,0.0,72,0.00,,,0.00,WUHU216HW,2013-06-05 00:11:00,
2013-06-04 20:12:00,62.1,53.0,30.05,North,0,0.0,0.0,72,0.00,,,0.00,WUHU216HW,2013-06-05 00:12:00,
2013-06-04 20:13:00,61.9,52.8,30.05,North,0,0.0,0.0,72,0.00,,,0.00,WUHU216HW,2013-06-05 00:13:00,
2013-06-04 20:14:00,61.9,52.8,30.06,North,0,0.0,0.0,72,0.00,,,0.00,WUHU216HW,2013-06-05 00:14:00,
2013-06-04 20:16:00,61.9,52.8,30.06,North,0,0.0,0.0,72,0.00,,,0.00,WUHU216HW,2013-06-05 00:16:00,
2013-06-04 20:17:00,61.9,52.8,30.06,North,0,0.0,0.0,72,0.00,,,0.00,WUHU216HW,2013-06-05 00:17:00,
2013-06-04 20:18:00,61.7,53.0,30.06,North,0,0.0,0.0,73,0.00,,,0.00,WUHU216HW,2013-06-05 00:18:00,
2013-06-04 20:19:00,61.7,53.0,30.06,North,0,0.0,0.0,73,0.00,,,0.00,WUHU216HW,2013-06-05 00:19:00,
2013-06-04 20:21:00,61.7,53.0,30.06,North,0,0.0,0.0,73,0.00,,,0.00,WUHU216HW,2013-06-05 00:21:00,
2013-06-04 20:22:00,61.7,53.0,30.06,North,0,0.0,0.0,73,0.00,,,0.00,WUHU216HW,2013-06-05 00:22:00,
2013-06-04 20:23:00,61.6,52.8,30.06,North,0,0.0,0.0,73,0.00,,,0.00,WUHU216HW,2013-06-05 00:23:00,
2013-06-04 20:24:00,61.6,52.8,30.06,North,0,0.0,0.0,73,0.00,,,0.00,WUHU216HW,2013-06-05 00:24:00,
2013-06-04 20:26:00,61.6,52.8,30.06,North,0,0.0,0.0,73,0.00,,,0.00,WUHU216HW,2013-06-05 00:26:00,
2013-06-04 20:27:00,61.6,52.8,30.06,North,0,0.0,0.0,73,0.00,,,0.00,WUHU216HW,2013-06-05 00:27:00,
2013-06-04 20:28:00,61.4,52.7,30.06,North,0,0.0,0.0,73,0.00,,,0.00,WUHU216HW,2013-06-05 00:28:00,
2013-06-04 20:29:00,61.4,52.7,30.06,North,0,0.0,0.0,73,0.00,,,0.00,WUHU216HW,2013-06-05 00:29:00,
2013-06-04 20:32:00,61.2,52.6,30.06,North,0,0.0,0.0,73,0.00,,,0.00,WUHU216HW,2013-06-05 00:32:00,
2013-06-04 20:33:00,61.2,52.6,30.06,North,0,0.0,0.0,73,0.00,,,0.00,WUHU216HW,2013-06-05 00:33:00,
2013-06-04 20:35:00,61.2,52.6,30.06,North,0,0.0,0.0,73,0.00,,,0.00,WUHU216HW,2013-06-05 00:35:00,
2013-06-04 20:37:00,61.2,52.9,30.07,North,0,0.0,0.0,74,0.00,,,0.00,WUHU216HW,2013-06-05 00:37:00,
2013-06-04 20:38:00,61.0,52.8,30.07,North,0,0.0,0.0,74,0.00,,,0.00,WUHU216HW,2013-06-05 00:38:00,
2013-06-04 20:40:00,61.0,52.8,30.07,North,0,0.0,0.0,74,0.00,,,0.00,WUHU216HW,2013-06-05 00:40:00,
2013-06-04 20:42:00,61.0,52.8,30.07,North,0,0.0,0.0,74,0.00,,,0.00,WUHU216HW,2013-06-05 00:42:00,
2013-06-04 20:43:00,61.0,52.8,30.07,North,0,0.0,0.0,74,0.00,,,0.00,WUHU216HW,2013-06-05 00:43:00,
2013-06-04 20:45:00,60.8,52.6,30.07,North,0,0.0,0.0,74,0.00,,,0.00,WUHU216HW,2013-06-05 00:45:00,
2013-06-04 20:48:00,60.8,52.6,30.07,North,0,0.0,0.0,74,0.00,,,0.00,WUHU216HW,2013-06-05 00:48:00,
2013-06-04 20:49:00,60.8,52.6,30.07,North,0,0.0,0.0,74,0.00,,,0.00,WUHU216HW,2013-06-05 00:49:00,
2013-06-04 20:50:00,60.8,52.6,30.07,North,0,0.0,0.0,74,0.00,,,0.00,WUHU216HW,2013-06-05 00:50:00,
2013-06-04 20:53:00,60.8,52.6,30.07,North,0,0.0,0.0,74,0.00,,,0.00,WUHU216HW,2013-06-05 00:53:00,
2013-06-04 20:54:00,60.8,52.6,30.07,North,0,0.0,0.0,74,0.00,,,0.00,WUHU216HW,2013-06-05 00:54:00,
2013-06-04 20:55:00,60.8,52.6,30.07,North,0,0.0,0.0,74,0.00,,,0.00,WUHU216HW,2013-06-05 00:55:00,
2013-06-04 20:58:00,61.0,52.8,30.07,North,0,0.0,0.0,74,0.00,,,0.00,WUHU216HW,2013-06-05 00:58:00,
2013-06-04 20:59:00,61.2,52.9,30.08,North,0,0.0,0.0,74,0.00,,,0.00,WUHU216HW,2013-06-05 00:59:00,
2013-06-04 21:00:00,61.0,52.8,30.08,North,0,0.0,0.0,74,0.00,,,0.00,WUHU216HW,2013-06-05 01:00:00,
2013-06-04 21:03:00,61.0,52.8,30.07,North,0,0.0,0.0,74,0.00,,,0.00,WUHU216HW,2013-06-05 01:03:00,
2013-06-04 21:04:00,61.2,52.9,30.08,North,0,0.0,0.0,74,0.00,,,0.00,WUHU216HW,2013-06-05 01:04:00,
2013-06-04 21:06:00,61.2,52.9,30.08,North,0,0.0,0.0,74,0.00,,,0.00,WUHU216HW,2013-06-05 01:06:00,
2013-06-04 21:09:00,61.2,52.9,30.08,North,0,0.0,0.0,74,0.00,,,0.00,WUHU216HW,2013-06-05 01:09:00,
2013-06-04 21:10:00,61.2,52.9,30.08,North,0,0.0,0.0,74,0.00,,,0.00,WUHU216HW,2013-06-05 01:10:00,
2013-06-04 21:11:00,61.2,52.9,30.08,North,0,0.0,0.0,74,0.00,,,0.00,WUHU216HW,2013-06-05 01:11:00,
2013-06-04 21:14:00,61.2,52.9,30.08,North,0,0.0,0.0,74,0.00,,,0.00,WUHU216HW,2013-06-05 01:14:00,
2013-06-04 21:15:00,61.2,52.9,30.08,North,0,0.0,0.0,74,0.00,,,0.00,WUHU216HW,2013-06-05 01:15:00,
2013-06-04 21:17:00,61.2,52.6,30.08,North,0,0.0,0.0,73,0.00,,,0.00,WUHU216HW,2013-06-05 01:17:00,
2013-06-04 21:19:00,61.2,52.6,30.08,North,0,0.0,0.0,73,0.00,,,0.00,WUHU216HW,2013-06-05 01:19:00,
2013-06-04 21:20:00,61.2,52.6,30.08,North,0,0.0,0.0,73,0.00,,,0.00,WUHU216HW,2013-06-05 01:20:00,
2013-06-04 21:21:00,61.2,52.6,30.08,North,0,0.0,0.0,73,0.00,,,0.00,WUHU216HW,2013-06-05 01:21:00,
2013-06-04 21:22:00,61.4,52.7,30.09,North,0,0.0,0.0,73,0.00,,,0.00,WUHU216HW,2013-06-05 01:22:00,
2013-06-04 21:24:00,61.4,52.7,30.09,North,0,0.0,0.0,73,0.00,,,0.00,WUHU216HW,2013-06-05 01:24:00,
2013-06-04 21:25:00,61.4,52.7,30.09,North,0,0.0,0.0,73,0.00,,,0.00,WUHU216HW,2013-06-05 01:25:00,
2013-06-04 21:26:00,61.4,52.7,30.09,North,0,0.0,0.0,73,0.00,,,0.00,WUHU216HW,2013-06-05 01:26:00,
2013-06-04 21:27:00,61.4,52.7,30.09,North,0,0.0,0.0,73,0.00,,,0.00,WUHU216HW,2013-06-05 01:27:00,
2013-06-04 21:29:00,61.6,52.8,30.09,North,0,0.0,0.0,73,0.00,,,0.00,WUHU216HW,2013-06-05 01:29:00,
2013-06-04 21:30:00,61.6,52.8,30.09,North,0,0.0,0.0,73,0.00,,,0.00,WUHU216HW,2013-06-05 01:30:00,
2013-06-04 21:31:00,61.6,52.5,30.09,North,0,0.0,0.0,72,0.00,,,0.00,WUHU216HW,2013-06-05 01:31:00,
2013-06-04 21:32:00,61.6,52.5,30.09,North,0,0.0,0.0,72,0.00,,,0.00,WUHU216HW,2013-06-05 01:32:00,
2013-06-04 21:34:00,61.6,52.5,30.09,North,0,0.0,0.0,72,0.00,,,0.00,WUHU216HW,2013-06-05 01:34:00,
2013-06-04 21:35:00,61.6,52.5,30.09,North,0,0.0,0.0,72,0.00,,,0.00,WUHU216HW,2013-06-05 01:35:00,
2013-06-04 21:36:00,61.6,52.5,30.09,North,0,0.0,0.0,72,0.00,,,0.00,WUHU216HW,2013-06-05 01:36:00,
2013-06-04 21:37:00,61.7,52.7,30.09,North,0,0.0,0.0,72,0.00,,,0.00,WUHU216HW,2013-06-05 01:37:00,
2013-06-04 21:38:00,61.7,52.3,30.09,North,0,0.0,0.0,71,0.00,,,0.00,WUHU216HW,2013-06-05 01:38:00,
2013-06-04 21:39:00,61.7,52.3,30.09,North,0,0.0,0.0,71,0.00,,,0.00,WUHU216HW,2013-06-05 01:39:00,
2013-06-04 21:40:00,61.7,52.3,30.09,North,0,0.0,0.0,71,0.00,,,0.00,WUHU216HW,2013-06-05 01:40:00,
2013-06-04 21:41:00,61.7,52.3,30.09,North,0,0.0,0.0,71,0.00,,,0.00,WUHU216HW,2013-06-05 01:41:00,
2013-06-04 21:42:00,61.7,52.3,30.09,North,0,0.0,0.0,71,0.00,,,0.00,WUHU216HW,2013-06-05 01:42:00,
2013-06-04 21:43:00,61.7,52.3,30.09,North,0,0.0,0.0,71,0.00,,,0.00,WUHU216HW,2013-06-05 01:43:00,
2013-06-04 21:44:00,61.7,52.3,30.09,North,0,0.0,0.0,71,0.00,,,0.00,WUHU216HW,2013-06-05 01:44:00,
2013-06-04 21:45:00,61.7,52.3,30.09,North,0,0.0,0.0,71,0.00,,,0.00,WUHU216HW,2013-06-05 01:45:00,
2013-06-04 21:46:00,61.7,52.3,30.09,North,0,0.0,0.0,71,0.00,,,0.00,WUHU216HW,2013-06-05 01:46:00,
2013-06-04 21:47:00,61.9,52.5,30.09,North,0,0.0,0.0,71,0.00,,,0.00,WUHU216HW,2013-06-05 01:47:00,
2013-06-04 21:48:00,61.9,52.5,30.09,North,0,0.0,0.0,71,0.00,,,0.00,WUHU216HW,2013-06-05 01:48:00,
2013-06-04 21:50:00,61.9,52.5,30.09,North,0,0.0,0.0,71,0.00,,,0.00,WUHU216HW,2013-06-05 01:50:00,
2013-06-04 21:51:00,61.9,52.8,30.09,North,0,0.0,0.0,72,0.00,,,0.00,WUHU216HW,2013-06-05 01:51:00,
2013-06-04 21:52:00,61.9,52.8,30.09,North,0,0.0,0.0,72,0.00,,,0.00,WUHU216HW,2013-06-05 01:52:00,
2013-06-04 21:53:00,62.1,53.0,30.09,North,0,0.0,0.0,72,0.00,,,0.00,WUHU216HW,2013-06-05 01:53:00,
2013-06-04 21:55:00,62.3,53.1,30.09,North,0,0.0,0.0,72,0.00,,,0.00,WUHU216HW,2013-06-05 01:55:00,
2013-06-04 21:57:00,62.3,53.1,30.09,North,0,0.0,0.0,72,0.00,,,0.00,WUHU216HW,2013-06-05 01:57:00,
2013-06-04 21:59:00,62.3,53.1,30.09,North,0,0.0,0.0,72,0.00,,,0.00,WUHU216HW,2013-06-05 01:59:00,
2013-06-04 22:00:00,62.3,53.1,30.09,North,0,0.0,0.0,72,0.00,,,0.00,WUHU216HW,2013-06-05 02:00:00,
2013-06-04 22:02:00,62.3,53.1,30.09,North,0,0.0,0.0,72,0.00,,,0.00,WUHU216HW,2013-06-05 02:02:00,
2013-06-04 22:04:00,62.3,53.1,30.09,North,0,0.0,0.0,72,0.00,,,0.00,WUHU216HW,2013-06-05 02:04:00,
2013-06-04 22:05:00,62.3,53.1,30.09,North,0,0.0,0.0,72,0.00,,,0.00,WUHU216HW,2013-06-05 02:05:00,
2013-06-04 22:07:00,62.3,53.1,30.09,North,0,0.0,0.0,72,0.00,,,0.00,WUHU216HW,2013-06-05 02:07:00,
2013-06-04 22:09:00,62.3,53.1,30.09,North,0,0.0,0.0,72,0.00,,,0.00,WUHU216HW,2013-06-05 02:09:00,
2013-06-04 22:10:00,62.1,53.0,30.10,North,0,0.0,0.0,72,0.00,,,0.00,WUHU216HW,2013-06-05 02:10:00,
2013-06-04 22:12:00,61.9,52.8,30.10,North,0,0.0,0.0,72,0.00,,,0.00,WUHU216HW,2013-06-05 02:12:00,
2013-06-04 22:14:00,61.9,52.8,30.10,North,0,0.0,0.0,72,0.00,,,0.00,WUHU216HW,2013-06-05 02:14:00,
2013-06-04 22:16:00,61.9,52.8,30.09,North,0,0.0,0.0,72,0.00,,,0.00,WUHU216HW,2013-06-05 02:16:00,
2013-06-04 22:17:00,62.1,52.7,30.09,North,0,0.0,0.0,71,0.00,,,0.00,WUHU216HW,2013-06-05 02:17:00,
2013-06-04 22:19:00,62.1,52.7,30.09,North,0,0.0,0.0,71,0.00,,,0.00,WUHU216HW,2013-06-05 02:19:00,
2013-06-04 22:22:00,62.1,52.7,30.09,North,0,0.0,0.0,71,0.00,,,0.00,WUHU216HW,2013-06-05 02:22:00,
2013-06-04 22:23:00,62.1,52.7,30.10,North,0,0.0,0.0,71,0.00,,,0.00,WUHU216HW,2013-06-05 02:23:00,
2013-06-04 22:24:00,62.1,52.3,30.10,North,0,0.0,0.0,70,0.00,,,0.00,WUHU216HW,2013-06-05 02:24:00,
2013-06-04 22:27:00,62.1,52.3,30.09,North,0,0.0,0.0,70,0.00,,,0.00,WUHU216HW,2013-06-05 02:27:00,
2013-06-04 22:28:00,62.1,52.3,30.09,North,0,0.0,0.0,70,0.00,,,0.00,WUHU216HW,2013-06-05 02:28:00,
2013-06-04 22:29:00,62.1,52.3,30.09,North,0,0.0,0.0,70,0.00,,,0.00,WUHU216HW,2013-06-05 02:29:00,
2013-06-04 22:33:00,62.1,52.3,30.09,North,0,0.0,0.0,70,0.00,,,0.00,WUHU216HW,2013-06-05 02:33:00,
2013-06-04 22:35:00,61.9,51.7,30.09,North,0,0.0,0.0,69,0.00,,,0.00,WUHU216HW,2013-06-05 02:35:00,
2013-06-04 22:38:00,61.9,51.7,30.09,North,0,0.0,0.0,69,0.00,,,0.00,WUHU216HW,2013-06-05 02:38:00,
2013-06-04 22:39:00,61.9,51.7,30.09,North,0,0.0,0.0,69,0.00,,,0.00,WUHU216HW,2013-06-05 02:39:00,
2013-06-04 22:40:00,61.9,51.7,30.09,North,0,0.0,0.0,69,0.00,,,0.00,WUHU216HW,2013-06-05 02:40:00,
2013-06-04 22:43:00,61.7,51.5,30.09,North,0,0.0,0.0,69,0.00,,,0.00,WUHU216HW,2013-06-05 02:43:00,
2013-06-04 22:44:00,61.7,51.5,30.09,North,0,0.0,0.0,69,0.00,,,0.00,WUHU216HW,2013-06-05 02:44:00,
2013-06-04 22:45:00,61.7,51.5,30.09,North,0,0.0,0.0,69,0.00,,,0.00,WUHU216HW,2013-06-05 02:45:00,
2013-06-04 22:48:00,61.7,51.5,30.09,North,0,0.0,0.0,69,0.00,,,0.00,WUHU216HW,2013-06-05 02:48:00,
2013-06-04 22:49:00,61.7,51.5,30.09,North,0,0.0,0.0,69,0.00,,,0.00,WUHU216HW,2013-06-05 02:49:00,
2013-06-04 22:51:00,61.7,51.5,30.09,North,0,0.0,0.0,69,0.00,,,0.00,WUHU216HW,2013-06-05 02:51:00,
2013-06-04 22:53:00,61.7,51.5,30.09,North,0,0.0,0.0,69,0.00,,,0.00,WUHU216HW,2013-06-05 02:53:00,
2013-06-04 22:54:00,61.6,51.4,30.09,North,0,0.0,0.0,69,0.00,,,0.00,WUHU216HW,2013-06-05 02:54:00,
2013-06-04 22:57:00,61.6,51.4,30.09,North,0,0.0,0.0,69,0.00,,,0.00,WUHU216HW,2013-06-05 02:57:00,
2013-06-04 22:58:00,61.6,51.4,30.09,North,0,0.0,0.0,69,0.00,,,0.00,WUHU216HW,2013-06-05 02:58:00,
2013-06-04 22:59:00,61.7,51.5,30.09,North,0,0.0,0.0,69,0.00,,,0.00,WUHU216HW,2013-06-05 02:59:00,
2013-06-04 23:02:00,61.7,51.5,30.09,North,0,0.0,0.0,69,0.00,,,0.00,WUHU216HW,2013-06-05 03:02:00,
2013-06-04 23:03:00,61.7,51.5,30.09,North,0,0.0,0.0,69,0.00,,,0.00,WUHU216HW,2013-06-05 03:03:00,
2013-06-04 23:04:00,61.7,51.5,30.09,North,0,0.0,0.0,69,0.00,,,0.00,WUHU216HW,2013-06-05 03:04:00,
2013-06-04 23:08:00,61.6,51.4,30.09,North,0,0.0,0.0,69,0.00,,,0.00,WUHU216HW,2013-06-05 03:08:00,
2013-06-04 23:09:00,61.7,51.5,30.09,North,0,0.0,0.0,69,0.00,,,0.00,WUHU216HW,2013-06-05 03:09:00,
2013-06-04 23:10:00,61.7,51.5,30.09,North,0,0.0,0.0,69,0.00,,,0.00,WUHU216HW,2013-06-05 03:10:00,
2013-06-04 23:13:00,61.7,51.5,30.09,North,0,0.0,0.0,69,0.00,,,0.00,WUHU216HW,2013-06-05 03:13:00,
2013-06-04 23:14:00,61.7,51.5,30.09,North,0,0.0,0.0,69,0.00,,,0.00,WUHU216HW,2013-06-05 03:14:00,
2013-06-04 23:15:00,61.7,51.5,30.09,North,0,0.0,0.0,69,0.00,,,0.00,WUHU216HW,2013-06-05 03:15:00,
2013-06-04 23:18:00,61.7,51.5,30.09,North,0,0.0,0.0,69,0.00,,,0.00,WUHU216HW,2013-06-05 03:18:00,
2013-06-04 23:19:00,61.6,51.4,30.09,North,0,0.0,0.0,69,0.00,,,0.00,WUHU216HW,2013-06-05 03:19:00,
2013-06-04 23:20:00,61.6,51.4,30.09,North,0,0.0,0.0,69,0.00,,,0.00,WUHU216HW,2013-06-05 03:20:00,
2013-06-04 23:23:00,61.6,51.4,30.09,North,0,0.0,0.0,69,0.00,,,0.00,WUHU216HW,2013-06-05 03:23:00,
2013-06-04 23:24:00,61.6,51.4,30.09,North,0,0.0,0.0,69,0.00,,,0.00,WUHU216HW,2013-06-05 03:24:00,
2013-06-04 23:25:00,61.6,51.8,30.09,North,0,0.0,0.0,70,0.00,,,0.00,WUHU216HW,2013-06-05 03:25:00,
2013-06-04 23:29:00,61.6,51.8,30.09,North,0,0.0,0.0,70,0.00,,,0.00,WUHU216HW,2013-06-05 03:29:00,
2013-06-04 23:30:00,61.6,51.4,30.09,North,0,0.0,0.0,69,0.00,,,0.00,WUHU216HW,2013-06-05 03:30:00,
2013-06-04 23:34:00,61.6,51.4,30.09,North,0,0.0,0.0,69,0.00,,,0.00,WUHU216HW,2013-06-05 03:34:00,
2013-06-04 23:35:00,61.6,51.4,30.09,North,0,0.0,0.0,69,0.00,,,0.00,WUHU216HW,2013-06-05 03:35:00,
2013-06-04 23:39:00,61.9,52.1,30.10,North,0,0.0,0.0,70,0.00,,,0.00,WUHU216HW,2013-06-05 03:39:00,
2013-06-04 23:40:00,61.9,52.1,30.09,North,0,0.0,0.0,70,0.00,,,0.00,WUHU216HW,2013-06-05 03:40:00,
2013-06-04 23:42:00,62.1,52.7,30.10,North,0,0.0,0.0,71,0.00,,,0.00,WUHU216HW,2013-06-05 03:42:00,
2013-06-04 23:44:00,62.3,52.7,30.09,North,0,0.0,0.0,71,0.00,,,0.00,WUHU216HW,2013-06-05 03:44:00,
2013-06-04 23:45:00,62.3,52.7,30.10,North,0,0.0,0.0,71,0.00,,,0.00,WUHU216HW,2013-06-05 03:45:00,
2013-06-04 23:46:00,62.3,52.7,30.10,North,0,0.0,0.0,71,0.00,,,0.00,WUHU216HW,2013-06-05 03:46:00,
2013-06-04 23:47:00,62.3,52.7,30.10,North,0,0.0,0.0,71,0.00,,,0.00,WUHU216HW,2013-06-05 03:47:00,
2013-06-04 23:49:00,62.3,52.7,30.10,North,0,0.0,0.0,71,0.00,,,0.00,WUHU216HW,2013-06-05 03:49:00,
2013-06-04 23:50:00,62.3,52.7,30.10,North,0,0.0,0.0,71,0.00,,,0.00,WUHU216HW,2013-06-05 03:50:00,
2013-06-04 23:52:00,62.3,52.4,30.10,North,0,0.0,0.0,70,0.00,,,0.00,WUHU216HW,2013-06-05 03:52:00,
2013-06-04 23:54:00,62.3,52.4,30.10,North,0,0.0,0.0,70,0.00,,,0.00,WUHU216HW,2013-06-05 03:54:00,
2013-06-04 23:55:00,62.1,52.3,30.10,North,0,0.0,0.0,70,0.00,,,0.00,WUHU216HW,2013-06-05 03:55:00,
2013-06-04 23:56:00,62.1,52.3,30.10,North,0,0.0,0.0,70,0.00,,,0.00,WUHU216HW,2013-06-05 03:56:00,
2013-06-04 23:57:00,62.1,52.3,30.10,North,0,0.0,0.0,70,0.00,,,0.00,WUHU216HW,2013-06-05 03:57:00,
2013-06-04 23:59:00,62.1,52.3,30.10,North,0,0.0,0.0,70,0.00,,,0.00,WUHU216HW,2013-06-05 03:59:00,